<?xml version="1.0" encoding="UTF-8" standalone="no" ?>
<gpx xmlns="http://www.topografix.com/GPX/1/1" xmlns:xsi="http://www.w3.org/2001/XMLSchema-instance" xsi:schemaLocation="http://www.topografix.com/GPX/1/1 http://www.topografix.com/GPX/1/1/gpx.xsd" version="1.1" creator="VisuGPX - https://www.visugpx.com">
  <metadata>
    <name>randonnée flaba</name>
    <desc><![CDATA[marche flaba mongarni raucourt haraucourt etc....]]></desc>
  </metadata>
  <trk>
    <name><![CDATA[Tracé actuel: 11 OCT 2018 13:02]]></name>
    <trkseg>
      <trkpt lat="49.63437" lon="4.98104">
        <ele>121.26</ele>
        <time>2018-10-11T11:02:59Z</time>
      </trkpt>
      <trkpt lat="49.63423" lon="4.98098">
        <ele>114.53</ele>
        <time>2018-10-11T11:03:20Z</time>
      </trkpt>
      <trkpt lat="49.63411" lon="4.98083">
        <ele>110.21</ele>
        <time>2018-10-11T11:03:38Z</time>
      </trkpt>
      <trkpt lat="49.63401" lon="4.98063">
        <ele>104.92</ele>
        <time>2018-10-11T11:03:57Z</time>
      </trkpt>
      <trkpt lat="49.63395" lon="4.98049">
        <ele>102.52</ele>
        <time>2018-10-11T11:04:08Z</time>
      </trkpt>
      <trkpt lat="49.63384" lon="4.98027">
        <ele>96.75</ele>
        <time>2018-10-11T11:04:28Z</time>
      </trkpt>
      <trkpt lat="49.6337" lon="4.98006">
        <ele>91.94</ele>
        <time>2018-10-11T11:04:48Z</time>
      </trkpt>
      <trkpt lat="49.63364" lon="4.98005">
        <ele>90.98</ele>
        <time>2018-10-11T11:05:06Z</time>
      </trkpt>
      <trkpt lat="49.63351" lon="4.98014">
        <ele>85.21</ele>
        <time>2018-10-11T11:05:22Z</time>
      </trkpt>
      <trkpt lat="49.63328" lon="4.98026">
        <ele>80.89</ele>
        <time>2018-10-11T11:05:44Z</time>
      </trkpt>
      <trkpt lat="49.63309" lon="4.98039">
        <ele>79.45</ele>
        <time>2018-10-11T11:06:03Z</time>
      </trkpt>
      <trkpt lat="49.63288" lon="4.9805">
        <ele>77.52</ele>
        <time>2018-10-11T11:06:27Z</time>
      </trkpt>
      <trkpt lat="49.63274" lon="4.98053">
        <ele>76.08</ele>
        <time>2018-10-11T11:06:40Z</time>
      </trkpt>
      <trkpt lat="49.63252" lon="4.98054">
        <ele>75.6</ele>
        <time>2018-10-11T11:06:59Z</time>
      </trkpt>
      <trkpt lat="49.63227" lon="4.98057">
        <ele>76.56</ele>
        <time>2018-10-11T11:07:20Z</time>
      </trkpt>
      <trkpt lat="49.63226" lon="4.98051">
        <ele>86.66</ele>
        <time>2018-10-11T11:07:39Z</time>
      </trkpt>
      <trkpt lat="49.63229" lon="4.98045">
        <ele>91.94</ele>
        <time>2018-10-11T11:07:44Z</time>
      </trkpt>
      <trkpt lat="49.63223" lon="4.98038">
        <ele>109.73</ele>
        <time>2018-10-11T11:08:08Z</time>
      </trkpt>
      <trkpt lat="49.63208" lon="4.98049">
        <ele>121.26</ele>
        <time>2018-10-11T11:08:29Z</time>
      </trkpt>
      <trkpt lat="49.63187" lon="4.98069">
        <ele>130.88</ele>
        <time>2018-10-11T11:08:52Z</time>
      </trkpt>
      <trkpt lat="49.63162" lon="4.98082">
        <ele>139.53</ele>
        <time>2018-10-11T11:09:14Z</time>
      </trkpt>
      <trkpt lat="49.63138" lon="4.98094">
        <ele>147.22</ele>
        <time>2018-10-11T11:09:36Z</time>
      </trkpt>
      <trkpt lat="49.63117" lon="4.98117">
        <ele>153.47</ele>
        <time>2018-10-11T11:09:59Z</time>
      </trkpt>
      <trkpt lat="49.63096" lon="4.98137">
        <ele>158.27</ele>
        <time>2018-10-11T11:10:21Z</time>
      </trkpt>
      <trkpt lat="49.63077" lon="4.98152">
        <ele>162.6</ele>
        <time>2018-10-11T11:10:41Z</time>
      </trkpt>
      <trkpt lat="49.63057" lon="4.98168">
        <ele>165.48</ele>
        <time>2018-10-11T11:11:02Z</time>
      </trkpt>
      <trkpt lat="49.63036" lon="4.98183">
        <ele>169.33</ele>
        <time>2018-10-11T11:11:23Z</time>
      </trkpt>
      <trkpt lat="49.63014" lon="4.98186">
        <ele>170.77</ele>
        <time>2018-10-11T11:11:44Z</time>
      </trkpt>
      <trkpt lat="49.62997" lon="4.98194">
        <ele>172.69</ele>
        <time>2018-10-11T11:12:05Z</time>
      </trkpt>
      <trkpt lat="49.62987" lon="4.98198">
        <ele>172.69</ele>
        <time>2018-10-11T11:12:25Z</time>
      </trkpt>
      <trkpt lat="49.62979" lon="4.982">
        <ele>172.21</ele>
        <time>2018-10-11T11:12:47Z</time>
      </trkpt>
      <trkpt lat="49.62976" lon="4.98202">
        <ele>169.81</ele>
        <time>2018-10-11T11:13:12Z</time>
      </trkpt>
      <trkpt lat="49.62973" lon="4.98202">
        <ele>168.85</ele>
        <time>2018-10-11T11:13:25Z</time>
      </trkpt>
      <trkpt lat="49.62939" lon="4.98219">
        <ele>169.33</ele>
        <time>2018-10-11T11:13:47Z</time>
      </trkpt>
      <trkpt lat="49.6292" lon="4.98228">
        <ele>169.33</ele>
        <time>2018-10-11T11:14:10Z</time>
      </trkpt>
      <trkpt lat="49.62896" lon="4.98242">
        <ele>168.85</ele>
        <time>2018-10-11T11:14:32Z</time>
      </trkpt>
      <trkpt lat="49.6288" lon="4.98244">
        <ele>171.73</ele>
        <time>2018-10-11T11:14:53Z</time>
      </trkpt>
      <trkpt lat="49.62873" lon="4.98245">
        <ele>168.85</ele>
        <time>2018-10-11T11:15:16Z</time>
      </trkpt>
      <trkpt lat="49.62846" lon="4.98258">
        <ele>158.27</ele>
        <time>2018-10-11T11:15:35Z</time>
      </trkpt>
      <trkpt lat="49.62828" lon="4.98261">
        <ele>161.64</ele>
        <time>2018-10-11T11:16:00Z</time>
      </trkpt>
      <trkpt lat="49.62825" lon="4.98257">
        <ele>161.16</ele>
        <time>2018-10-11T11:16:24Z</time>
      </trkpt>
      <trkpt lat="49.62821" lon="4.98259">
        <ele>159.72</ele>
        <time>2018-10-11T11:16:47Z</time>
      </trkpt>
      <trkpt lat="49.62789" lon="4.98272">
        <ele>155.39</ele>
        <time>2018-10-11T11:17:10Z</time>
      </trkpt>
      <trkpt lat="49.62758" lon="4.98295">
        <ele>148.18</ele>
        <time>2018-10-11T11:17:30Z</time>
      </trkpt>
      <trkpt lat="49.62725" lon="4.9832">
        <ele>144.82</ele>
        <time>2018-10-11T11:17:52Z</time>
      </trkpt>
      <trkpt lat="49.62695" lon="4.9835">
        <ele>144.82</ele>
        <time>2018-10-11T11:18:15Z</time>
      </trkpt>
      <trkpt lat="49.62672" lon="4.98377">
        <ele>149.14</ele>
        <time>2018-10-11T11:18:39Z</time>
      </trkpt>
      <trkpt lat="49.6266" lon="4.98401">
        <ele>158.75</ele>
        <time>2018-10-11T11:19:03Z</time>
      </trkpt>
      <trkpt lat="49.62654" lon="4.9842">
        <ele>161.16</ele>
        <time>2018-10-11T11:19:21Z</time>
      </trkpt>
      <trkpt lat="49.62643" lon="4.98448">
        <ele>166.93</ele>
        <time>2018-10-11T11:19:43Z</time>
      </trkpt>
      <trkpt lat="49.62642" lon="4.98449">
        <ele>166.93</ele>
        <time>2018-10-11T11:19:44Z</time>
      </trkpt>
      <trkpt lat="49.62634" lon="4.98476">
        <ele>172.69</ele>
        <time>2018-10-11T11:20:04Z</time>
      </trkpt>
      <trkpt lat="49.62618" lon="4.98505">
        <ele>182.79</ele>
        <time>2018-10-11T11:20:25Z</time>
      </trkpt>
      <trkpt lat="49.62598" lon="4.98539">
        <ele>192.4</ele>
        <time>2018-10-11T11:20:49Z</time>
      </trkpt>
      <trkpt lat="49.62585" lon="4.98561">
        <ele>199.61</ele>
        <time>2018-10-11T11:21:09Z</time>
      </trkpt>
      <trkpt lat="49.62584" lon="4.98562">
        <ele>200.57</ele>
        <time>2018-10-11T11:21:11Z</time>
      </trkpt>
      <trkpt lat="49.62564" lon="4.98575">
        <ele>208.26</ele>
        <time>2018-10-11T11:21:34Z</time>
      </trkpt>
      <trkpt lat="49.62546" lon="4.98576">
        <ele>210.67</ele>
        <time>2018-10-11T11:21:51Z</time>
      </trkpt>
      <trkpt lat="49.62532" lon="4.98569">
        <ele>215.47</ele>
        <time>2018-10-11T11:22:09Z</time>
      </trkpt>
      <trkpt lat="49.62519" lon="4.98562">
        <ele>218.84</ele>
        <time>2018-10-11T11:22:27Z</time>
      </trkpt>
      <trkpt lat="49.62495" lon="4.98547">
        <ele>222.2</ele>
        <time>2018-10-11T11:22:49Z</time>
      </trkpt>
      <trkpt lat="49.62476" lon="4.98539">
        <ele>222.2</ele>
        <time>2018-10-11T11:23:11Z</time>
      </trkpt>
      <trkpt lat="49.62461" lon="4.98525">
        <ele>221.72</ele>
        <time>2018-10-11T11:23:29Z</time>
      </trkpt>
      <trkpt lat="49.6244" lon="4.98514">
        <ele>222.68</ele>
        <time>2018-10-11T11:23:52Z</time>
      </trkpt>
      <trkpt lat="49.62418" lon="4.98496">
        <ele>223.16</ele>
        <time>2018-10-11T11:24:15Z</time>
      </trkpt>
      <trkpt lat="49.62382" lon="4.98486">
        <ele>225.57</ele>
        <time>2018-10-11T11:24:39Z</time>
      </trkpt>
      <trkpt lat="49.62352" lon="4.98472">
        <ele>225.57</ele>
        <time>2018-10-11T11:25:03Z</time>
      </trkpt>
      <trkpt lat="49.6233" lon="4.98464">
        <ele>224.12</ele>
        <time>2018-10-11T11:25:25Z</time>
      </trkpt>
      <trkpt lat="49.62319" lon="4.98451">
        <ele>222.68</ele>
        <time>2018-10-11T11:25:48Z</time>
      </trkpt>
      <trkpt lat="49.62298" lon="4.9842">
        <ele>221.24</ele>
        <time>2018-10-11T11:26:15Z</time>
      </trkpt>
      <trkpt lat="49.62278" lon="4.98397">
        <ele>219.8</ele>
        <time>2018-10-11T11:26:35Z</time>
      </trkpt>
      <trkpt lat="49.62267" lon="4.98384">
        <ele>218.84</ele>
        <time>2018-10-11T11:26:59Z</time>
      </trkpt>
      <trkpt lat="49.62252" lon="4.98372">
        <ele>218.84</ele>
        <time>2018-10-11T11:27:22Z</time>
      </trkpt>
      <trkpt lat="49.62234" lon="4.98359">
        <ele>220.28</ele>
        <time>2018-10-11T11:27:43Z</time>
      </trkpt>
      <trkpt lat="49.62221" lon="4.98342">
        <ele>222.68</ele>
        <time>2018-10-11T11:28:06Z</time>
      </trkpt>
      <trkpt lat="49.62212" lon="4.98328">
        <ele>225.09</ele>
        <time>2018-10-11T11:28:28Z</time>
      </trkpt>
      <trkpt lat="49.62192" lon="4.98316">
        <ele>222.2</ele>
        <time>2018-10-11T11:28:48Z</time>
      </trkpt>
      <trkpt lat="49.62172" lon="4.98298">
        <ele>216.91</ele>
        <time>2018-10-11T11:29:09Z</time>
      </trkpt>
      <trkpt lat="49.62153" lon="4.98275">
        <ele>215.95</ele>
        <time>2018-10-11T11:29:35Z</time>
      </trkpt>
      <trkpt lat="49.62134" lon="4.98262">
        <ele>220.28</ele>
        <time>2018-10-11T11:29:55Z</time>
      </trkpt>
      <trkpt lat="49.62111" lon="4.98249">
        <ele>225.57</ele>
        <time>2018-10-11T11:30:18Z</time>
      </trkpt>
      <trkpt lat="49.62094" lon="4.98247">
        <ele>229.89</ele>
        <time>2018-10-11T11:30:40Z</time>
      </trkpt>
      <trkpt lat="49.62067" lon="4.9825">
        <ele>237.58</ele>
        <time>2018-10-11T11:31:03Z</time>
      </trkpt>
      <trkpt lat="49.62028" lon="4.98239">
        <ele>242.39</ele>
        <time>2018-10-11T11:31:26Z</time>
      </trkpt>
      <trkpt lat="49.62" lon="4.9823">
        <ele>244.79</ele>
        <time>2018-10-11T11:31:45Z</time>
      </trkpt>
      <trkpt lat="49.61976" lon="4.98214">
        <ele>245.75</ele>
        <time>2018-10-11T11:32:03Z</time>
      </trkpt>
      <trkpt lat="49.61963" lon="4.982">
        <ele>248.64</ele>
        <time>2018-10-11T11:32:26Z</time>
      </trkpt>
      <trkpt lat="49.61955" lon="4.9819">
        <ele>249.6</ele>
        <time>2018-10-11T11:32:47Z</time>
      </trkpt>
      <trkpt lat="49.61946" lon="4.98184">
        <ele>247.2</ele>
        <time>2018-10-11T11:33:11Z</time>
      </trkpt>
      <trkpt lat="49.61928" lon="4.9818">
        <ele>246.72</ele>
        <time>2018-10-11T11:33:32Z</time>
      </trkpt>
      <trkpt lat="49.61902" lon="4.98187">
        <ele>243.83</ele>
        <time>2018-10-11T11:33:54Z</time>
      </trkpt>
      <trkpt lat="49.61877" lon="4.98189">
        <ele>242.39</ele>
        <time>2018-10-11T11:34:16Z</time>
      </trkpt>
      <trkpt lat="49.61871" lon="4.98176">
        <ele>244.31</ele>
        <time>2018-10-11T11:34:29Z</time>
      </trkpt>
      <trkpt lat="49.61874" lon="4.98154">
        <ele>246.23</ele>
        <time>2018-10-11T11:34:48Z</time>
      </trkpt>
      <trkpt lat="49.61874" lon="4.98143">
        <ele>247.2</ele>
        <time>2018-10-11T11:35:06Z</time>
      </trkpt>
      <trkpt lat="49.61876" lon="4.98129">
        <ele>248.16</ele>
        <time>2018-10-11T11:35:29Z</time>
      </trkpt>
      <trkpt lat="49.61882" lon="4.98101">
        <ele>242.39</ele>
        <time>2018-10-11T11:35:51Z</time>
      </trkpt>
      <trkpt lat="49.61889" lon="4.98078">
        <ele>238.54</ele>
        <time>2018-10-11T11:36:08Z</time>
      </trkpt>
      <trkpt lat="49.61891" lon="4.98053">
        <ele>239.51</ele>
        <time>2018-10-11T11:36:27Z</time>
      </trkpt>
      <trkpt lat="49.619" lon="4.9803">
        <ele>238.54</ele>
        <time>2018-10-11T11:36:49Z</time>
      </trkpt>
      <trkpt lat="49.61913" lon="4.98014">
        <ele>241.43</ele>
        <time>2018-10-11T11:37:07Z</time>
      </trkpt>
      <trkpt lat="49.61916" lon="4.97996">
        <ele>241.43</ele>
        <time>2018-10-11T11:37:23Z</time>
      </trkpt>
      <trkpt lat="49.61918" lon="4.97992">
        <ele>241.43</ele>
        <time>2018-10-11T11:37:26Z</time>
      </trkpt>
      <trkpt lat="49.61935" lon="4.97964">
        <ele>241.91</ele>
        <time>2018-10-11T11:37:48Z</time>
      </trkpt>
      <trkpt lat="49.61944" lon="4.97914">
        <ele>250.08</ele>
        <time>2018-10-11T11:38:09Z</time>
      </trkpt>
      <trkpt lat="49.61949" lon="4.97906">
        <ele>251.52</ele>
        <time>2018-10-11T11:38:15Z</time>
      </trkpt>
      <trkpt lat="49.61965" lon="4.9787">
        <ele>258.25</ele>
        <time>2018-10-11T11:38:37Z</time>
      </trkpt>
      <trkpt lat="49.61992" lon="4.97826">
        <ele>270.27</ele>
        <time>2018-10-11T11:38:56Z</time>
      </trkpt>
      <trkpt lat="49.62002" lon="4.9779">
        <ele>273.15</ele>
        <time>2018-10-11T11:39:17Z</time>
      </trkpt>
      <trkpt lat="49.62009" lon="4.9776">
        <ele>274.11</ele>
        <time>2018-10-11T11:39:36Z</time>
      </trkpt>
      <trkpt lat="49.62014" lon="4.97728">
        <ele>275.07</ele>
        <time>2018-10-11T11:39:55Z</time>
      </trkpt>
      <trkpt lat="49.6202" lon="4.97694">
        <ele>276.04</ele>
        <time>2018-10-11T11:40:15Z</time>
      </trkpt>
      <trkpt lat="49.62025" lon="4.9766">
        <ele>275.07</ele>
        <time>2018-10-11T11:40:36Z</time>
      </trkpt>
      <trkpt lat="49.62029" lon="4.97622">
        <ele>276.04</ele>
        <time>2018-10-11T11:40:59Z</time>
      </trkpt>
      <trkpt lat="49.6203" lon="4.97592">
        <ele>276.04</ele>
        <time>2018-10-11T11:41:17Z</time>
      </trkpt>
      <trkpt lat="49.62031" lon="4.97557">
        <ele>275.56</ele>
        <time>2018-10-11T11:41:39Z</time>
      </trkpt>
      <trkpt lat="49.62033" lon="4.97528">
        <ele>275.07</ele>
        <time>2018-10-11T11:41:57Z</time>
      </trkpt>
      <trkpt lat="49.62035" lon="4.97507">
        <ele>275.07</ele>
        <time>2018-10-11T11:42:09Z</time>
      </trkpt>
      <trkpt lat="49.62034" lon="4.97503">
        <ele>275.56</ele>
        <time>2018-10-11T11:42:12Z</time>
      </trkpt>
      <trkpt lat="49.62022" lon="4.975">
        <ele>275.56</ele>
        <time>2018-10-11T11:42:28Z</time>
      </trkpt>
      <trkpt lat="49.62002" lon="4.97502">
        <ele>276.52</ele>
        <time>2018-10-11T11:42:46Z</time>
      </trkpt>
      <trkpt lat="49.61981" lon="4.97502">
        <ele>277.96</ele>
        <time>2018-10-11T11:43:05Z</time>
      </trkpt>
      <trkpt lat="49.61957" lon="4.97502">
        <ele>279.4</ele>
        <time>2018-10-11T11:43:25Z</time>
      </trkpt>
      <trkpt lat="49.61935" lon="4.975">
        <ele>275.56</ele>
        <time>2018-10-11T11:43:46Z</time>
      </trkpt>
      <trkpt lat="49.61915" lon="4.97499">
        <ele>271.23</ele>
        <time>2018-10-11T11:44:04Z</time>
      </trkpt>
      <trkpt lat="49.61897" lon="4.97498">
        <ele>268.35</ele>
        <time>2018-10-11T11:44:21Z</time>
      </trkpt>
      <trkpt lat="49.61881" lon="4.97488">
        <ele>266.42</ele>
        <time>2018-10-11T11:44:40Z</time>
      </trkpt>
      <trkpt lat="49.61867" lon="4.9747">
        <ele>263.54</ele>
        <time>2018-10-11T11:44:59Z</time>
      </trkpt>
      <trkpt lat="49.61852" lon="4.97452">
        <ele>262.1</ele>
        <time>2018-10-11T11:45:17Z</time>
      </trkpt>
      <trkpt lat="49.61837" lon="4.97432">
        <ele>260.17</ele>
        <time>2018-10-11T11:45:34Z</time>
      </trkpt>
      <trkpt lat="49.61819" lon="4.97409">
        <ele>257.77</ele>
        <time>2018-10-11T11:45:56Z</time>
      </trkpt>
      <trkpt lat="49.61811" lon="4.97379">
        <ele>257.29</ele>
        <time>2018-10-11T11:46:18Z</time>
      </trkpt>
      <trkpt lat="49.61805" lon="4.9735">
        <ele>255.37</ele>
        <time>2018-10-11T11:46:38Z</time>
      </trkpt>
      <trkpt lat="49.61799" lon="4.9732">
        <ele>252.96</ele>
        <time>2018-10-11T11:46:58Z</time>
      </trkpt>
      <trkpt lat="49.61794" lon="4.97304">
        <ele>252.96</ele>
        <time>2018-10-11T11:47:13Z</time>
      </trkpt>
      <trkpt lat="49.61787" lon="4.9728">
        <ele>252.96</ele>
        <time>2018-10-11T11:47:32Z</time>
      </trkpt>
      <trkpt lat="49.61778" lon="4.97252">
        <ele>252</ele>
        <time>2018-10-11T11:47:51Z</time>
      </trkpt>
      <trkpt lat="49.6177" lon="4.97224">
        <ele>249.6</ele>
        <time>2018-10-11T11:48:10Z</time>
      </trkpt>
      <trkpt lat="49.61765" lon="4.972">
        <ele>248.16</ele>
        <time>2018-10-11T11:48:26Z</time>
      </trkpt>
      <trkpt lat="49.61757" lon="4.97172">
        <ele>247.2</ele>
        <time>2018-10-11T11:48:42Z</time>
      </trkpt>
      <trkpt lat="49.61748" lon="4.97154">
        <ele>247.2</ele>
        <time>2018-10-11T11:48:58Z</time>
      </trkpt>
      <trkpt lat="49.61733" lon="4.97173">
        <ele>247.68</ele>
        <time>2018-10-11T11:49:18Z</time>
      </trkpt>
      <trkpt lat="49.61714" lon="4.97201">
        <ele>245.75</ele>
        <time>2018-10-11T11:49:40Z</time>
      </trkpt>
      <trkpt lat="49.617" lon="4.97224">
        <ele>243.83</ele>
        <time>2018-10-11T11:49:58Z</time>
      </trkpt>
      <trkpt lat="49.61685" lon="4.97253">
        <ele>243.35</ele>
        <time>2018-10-11T11:50:19Z</time>
      </trkpt>
      <trkpt lat="49.61668" lon="4.97279">
        <ele>242.39</ele>
        <time>2018-10-11T11:50:40Z</time>
      </trkpt>
      <trkpt lat="49.61652" lon="4.973">
        <ele>242.87</ele>
        <time>2018-10-11T11:51:00Z</time>
      </trkpt>
      <trkpt lat="49.61634" lon="4.97323">
        <ele>242.87</ele>
        <time>2018-10-11T11:51:20Z</time>
      </trkpt>
      <trkpt lat="49.61627" lon="4.97335">
        <ele>243.35</ele>
        <time>2018-10-11T11:51:30Z</time>
      </trkpt>
      <trkpt lat="49.61611" lon="4.97358">
        <ele>242.87</ele>
        <time>2018-10-11T11:51:49Z</time>
      </trkpt>
      <trkpt lat="49.61597" lon="4.97377">
        <ele>241.91</ele>
        <time>2018-10-11T11:52:07Z</time>
      </trkpt>
      <trkpt lat="49.61581" lon="4.97399">
        <ele>239.51</ele>
        <time>2018-10-11T11:52:26Z</time>
      </trkpt>
      <trkpt lat="49.61565" lon="4.97422">
        <ele>239.02</ele>
        <time>2018-10-11T11:52:46Z</time>
      </trkpt>
      <trkpt lat="49.61552" lon="4.97443">
        <ele>239.51</ele>
        <time>2018-10-11T11:53:03Z</time>
      </trkpt>
      <trkpt lat="49.61539" lon="4.97465">
        <ele>239.99</ele>
        <time>2018-10-11T11:53:21Z</time>
      </trkpt>
      <trkpt lat="49.61531" lon="4.97477">
        <ele>240.47</ele>
        <time>2018-10-11T11:53:36Z</time>
      </trkpt>
      <trkpt lat="49.61526" lon="4.97485">
        <ele>241.43</ele>
        <time>2018-10-11T11:53:42Z</time>
      </trkpt>
      <trkpt lat="49.61513" lon="4.97505">
        <ele>244.79</ele>
        <time>2018-10-11T11:54:00Z</time>
      </trkpt>
      <trkpt lat="49.61497" lon="4.97523">
        <ele>247.68</ele>
        <time>2018-10-11T11:54:18Z</time>
      </trkpt>
      <trkpt lat="49.61482" lon="4.9754">
        <ele>250.08</ele>
        <time>2018-10-11T11:54:36Z</time>
      </trkpt>
      <trkpt lat="49.61467" lon="4.97562">
        <ele>250.56</ele>
        <time>2018-10-11T11:54:55Z</time>
      </trkpt>
      <trkpt lat="49.61451" lon="4.97582">
        <ele>251.52</ele>
        <time>2018-10-11T11:55:15Z</time>
      </trkpt>
      <trkpt lat="49.61435" lon="4.97605">
        <ele>252.48</ele>
        <time>2018-10-11T11:55:35Z</time>
      </trkpt>
      <trkpt lat="49.61418" lon="4.97626">
        <ele>255.37</ele>
        <time>2018-10-11T11:55:55Z</time>
      </trkpt>
      <trkpt lat="49.61403" lon="4.97645">
        <ele>257.29</ele>
        <time>2018-10-11T11:56:14Z</time>
      </trkpt>
      <trkpt lat="49.61386" lon="4.97658">
        <ele>259.21</ele>
        <time>2018-10-11T11:56:33Z</time>
      </trkpt>
      <trkpt lat="49.61371" lon="4.97673">
        <ele>262.1</ele>
        <time>2018-10-11T11:56:51Z</time>
      </trkpt>
      <trkpt lat="49.61355" lon="4.9769">
        <ele>265.46</ele>
        <time>2018-10-11T11:57:10Z</time>
      </trkpt>
      <trkpt lat="49.61338" lon="4.97706">
        <ele>268.35</ele>
        <time>2018-10-11T11:57:29Z</time>
      </trkpt>
      <trkpt lat="49.61319" lon="4.97722">
        <ele>273.63</ele>
        <time>2018-10-11T11:57:50Z</time>
      </trkpt>
      <trkpt lat="49.61299" lon="4.97736">
        <ele>278.44</ele>
        <time>2018-10-11T11:58:11Z</time>
      </trkpt>
      <trkpt lat="49.61281" lon="4.97745">
        <ele>281.8</ele>
        <time>2018-10-11T11:58:30Z</time>
      </trkpt>
      <trkpt lat="49.61262" lon="4.97755">
        <ele>288.05</ele>
        <time>2018-10-11T11:58:49Z</time>
      </trkpt>
      <trkpt lat="49.61243" lon="4.97768">
        <ele>290.94</ele>
        <time>2018-10-11T11:59:10Z</time>
      </trkpt>
      <trkpt lat="49.6123" lon="4.97775">
        <ele>291.9</ele>
        <time>2018-10-11T11:59:25Z</time>
      </trkpt>
      <trkpt lat="49.61229" lon="4.97776">
        <ele>295.74</ele>
        <time>2018-10-11T11:59:40Z</time>
      </trkpt>
      <trkpt lat="49.61228" lon="4.97778">
        <ele>295.74</ele>
        <time>2018-10-11T11:59:43Z</time>
      </trkpt>
      <trkpt lat="49.61215" lon="4.97791">
        <ele>296.22</ele>
        <time>2018-10-11T11:59:57Z</time>
      </trkpt>
      <trkpt lat="49.61202" lon="4.97808">
        <ele>296.22</ele>
        <time>2018-10-11T12:00:14Z</time>
      </trkpt>
      <trkpt lat="49.61196" lon="4.97818">
        <ele>296.22</ele>
        <time>2018-10-11T12:00:23Z</time>
      </trkpt>
      <trkpt lat="49.61181" lon="4.97838">
        <ele>295.26</ele>
        <time>2018-10-11T12:00:45Z</time>
      </trkpt>
      <trkpt lat="49.61166" lon="4.97854">
        <ele>293.82</ele>
        <time>2018-10-11T12:01:02Z</time>
      </trkpt>
      <trkpt lat="49.61148" lon="4.97871">
        <ele>290.46</ele>
        <time>2018-10-11T12:01:21Z</time>
      </trkpt>
      <trkpt lat="49.61134" lon="4.9789">
        <ele>290.46</ele>
        <time>2018-10-11T12:01:39Z</time>
      </trkpt>
      <trkpt lat="49.61117" lon="4.97914">
        <ele>290.94</ele>
        <time>2018-10-11T12:02:01Z</time>
      </trkpt>
      <trkpt lat="49.61101" lon="4.97932">
        <ele>290.94</ele>
        <time>2018-10-11T12:02:18Z</time>
      </trkpt>
      <trkpt lat="49.61098" lon="4.9794">
        <ele>293.82</ele>
        <time>2018-10-11T12:02:36Z</time>
      </trkpt>
      <trkpt lat="49.61096" lon="4.97942">
        <ele>294.78</ele>
        <time>2018-10-11T12:02:51Z</time>
      </trkpt>
      <trkpt lat="49.61083" lon="4.97963">
        <ele>294.78</ele>
        <time>2018-10-11T12:03:09Z</time>
      </trkpt>
      <trkpt lat="49.61067" lon="4.97983">
        <ele>295.74</ele>
        <time>2018-10-11T12:03:25Z</time>
      </trkpt>
      <trkpt lat="49.61052" lon="4.98005">
        <ele>296.7</ele>
        <time>2018-10-11T12:03:42Z</time>
      </trkpt>
      <trkpt lat="49.61038" lon="4.98026">
        <ele>295.74</ele>
        <time>2018-10-11T12:04:01Z</time>
      </trkpt>
      <trkpt lat="49.61028" lon="4.98055">
        <ele>297.67</ele>
        <time>2018-10-11T12:04:22Z</time>
      </trkpt>
      <trkpt lat="49.61013" lon="4.98079">
        <ele>297.18</ele>
        <time>2018-10-11T12:04:44Z</time>
      </trkpt>
      <trkpt lat="49.60999" lon="4.98104">
        <ele>294.3</ele>
        <time>2018-10-11T12:05:05Z</time>
      </trkpt>
      <trkpt lat="49.60987" lon="4.98129">
        <ele>291.9</ele>
        <time>2018-10-11T12:05:24Z</time>
      </trkpt>
      <trkpt lat="49.60972" lon="4.98153">
        <ele>291.42</ele>
        <time>2018-10-11T12:05:43Z</time>
      </trkpt>
      <trkpt lat="49.60958" lon="4.98177">
        <ele>290.94</ele>
        <time>2018-10-11T12:06:01Z</time>
      </trkpt>
      <trkpt lat="49.60945" lon="4.98202">
        <ele>289.97</ele>
        <time>2018-10-11T12:06:21Z</time>
      </trkpt>
      <trkpt lat="49.60933" lon="4.98226">
        <ele>289.97</ele>
        <time>2018-10-11T12:06:39Z</time>
      </trkpt>
      <trkpt lat="49.6092" lon="4.98258">
        <ele>289.01</ele>
        <time>2018-10-11T12:07:00Z</time>
      </trkpt>
      <trkpt lat="49.60919" lon="4.9826">
        <ele>289.01</ele>
        <time>2018-10-11T12:07:01Z</time>
      </trkpt>
      <trkpt lat="49.60915" lon="4.98272">
        <ele>288.05</ele>
        <time>2018-10-11T12:07:09Z</time>
      </trkpt>
      <trkpt lat="49.60906" lon="4.98305">
        <ele>287.57</ele>
        <time>2018-10-11T12:07:32Z</time>
      </trkpt>
      <trkpt lat="49.60901" lon="4.98317">
        <ele>288.05</ele>
        <time>2018-10-11T12:07:50Z</time>
      </trkpt>
      <trkpt lat="49.6089" lon="4.98335">
        <ele>288.53</ele>
        <time>2018-10-11T12:08:11Z</time>
      </trkpt>
      <trkpt lat="49.60882" lon="4.98362">
        <ele>289.01</ele>
        <time>2018-10-11T12:08:29Z</time>
      </trkpt>
      <trkpt lat="49.60871" lon="4.98386">
        <ele>288.05</ele>
        <time>2018-10-11T12:08:48Z</time>
      </trkpt>
      <trkpt lat="49.60862" lon="4.98412">
        <ele>288.05</ele>
        <time>2018-10-11T12:09:05Z</time>
      </trkpt>
      <trkpt lat="49.60852" lon="4.98441">
        <ele>287.09</ele>
        <time>2018-10-11T12:09:25Z</time>
      </trkpt>
      <trkpt lat="49.60838" lon="4.98469">
        <ele>284.21</ele>
        <time>2018-10-11T12:09:45Z</time>
      </trkpt>
      <trkpt lat="49.60829" lon="4.98497">
        <ele>280.84</ele>
        <time>2018-10-11T12:10:05Z</time>
      </trkpt>
      <trkpt lat="49.60817" lon="4.98519">
        <ele>279.88</ele>
        <time>2018-10-11T12:10:23Z</time>
      </trkpt>
      <trkpt lat="49.60804" lon="4.98547">
        <ele>279.4</ele>
        <time>2018-10-11T12:10:42Z</time>
      </trkpt>
      <trkpt lat="49.60791" lon="4.98574">
        <ele>280.84</ele>
        <time>2018-10-11T12:11:03Z</time>
      </trkpt>
      <trkpt lat="49.60781" lon="4.986">
        <ele>283.73</ele>
        <time>2018-10-11T12:11:21Z</time>
      </trkpt>
      <trkpt lat="49.6077" lon="4.98626">
        <ele>286.13</ele>
        <time>2018-10-11T12:11:40Z</time>
      </trkpt>
      <trkpt lat="49.6075" lon="4.98653">
        <ele>293.34</ele>
        <time>2018-10-11T12:12:01Z</time>
      </trkpt>
      <trkpt lat="49.60737" lon="4.98678">
        <ele>297.18</ele>
        <time>2018-10-11T12:12:18Z</time>
      </trkpt>
      <trkpt lat="49.60727" lon="4.98706">
        <ele>297.67</ele>
        <time>2018-10-11T12:12:37Z</time>
      </trkpt>
      <trkpt lat="49.60725" lon="4.9871">
        <ele>297.67</ele>
        <time>2018-10-11T12:12:40Z</time>
      </trkpt>
      <trkpt lat="49.60711" lon="4.98743">
        <ele>296.7</ele>
        <time>2018-10-11T12:13:04Z</time>
      </trkpt>
      <trkpt lat="49.607" lon="4.98765">
        <ele>296.22</ele>
        <time>2018-10-11T12:13:21Z</time>
      </trkpt>
      <trkpt lat="49.60685" lon="4.98796">
        <ele>295.74</ele>
        <time>2018-10-11T12:13:44Z</time>
      </trkpt>
      <trkpt lat="49.60674" lon="4.98821">
        <ele>293.34</ele>
        <time>2018-10-11T12:14:04Z</time>
      </trkpt>
      <trkpt lat="49.60664" lon="4.98845">
        <ele>291.42</ele>
        <time>2018-10-11T12:14:23Z</time>
      </trkpt>
      <trkpt lat="49.60648" lon="4.98875">
        <ele>288.53</ele>
        <time>2018-10-11T12:14:44Z</time>
      </trkpt>
      <trkpt lat="49.60633" lon="4.98899">
        <ele>285.17</ele>
        <time>2018-10-11T12:15:06Z</time>
      </trkpt>
      <trkpt lat="49.60623" lon="4.98904">
        <ele>286.13</ele>
        <time>2018-10-11T12:15:12Z</time>
      </trkpt>
      <trkpt lat="49.60599" lon="4.98909">
        <ele>292.38</ele>
        <time>2018-10-11T12:15:29Z</time>
      </trkpt>
      <trkpt lat="49.60582" lon="4.98911">
        <ele>291.9</ele>
        <time>2018-10-11T12:15:45Z</time>
      </trkpt>
      <trkpt lat="49.60563" lon="4.98913">
        <ele>289.97</ele>
        <time>2018-10-11T12:16:03Z</time>
      </trkpt>
      <trkpt lat="49.60546" lon="4.98909">
        <ele>288.53</ele>
        <time>2018-10-11T12:16:19Z</time>
      </trkpt>
      <trkpt lat="49.60528" lon="4.98908">
        <ele>288.05</ele>
        <time>2018-10-11T12:16:36Z</time>
      </trkpt>
      <trkpt lat="49.60512" lon="4.98902">
        <ele>287.09</ele>
        <time>2018-10-11T12:16:51Z</time>
      </trkpt>
      <trkpt lat="49.60494" lon="4.98893">
        <ele>284.21</ele>
        <time>2018-10-11T12:17:11Z</time>
      </trkpt>
      <trkpt lat="49.60487" lon="4.98885">
        <ele>286.13</ele>
        <time>2018-10-11T12:17:26Z</time>
      </trkpt>
      <trkpt lat="49.60465" lon="4.98871">
        <ele>284.21</ele>
        <time>2018-10-11T12:17:46Z</time>
      </trkpt>
      <trkpt lat="49.60448" lon="4.98867">
        <ele>281.32</ele>
        <time>2018-10-11T12:18:02Z</time>
      </trkpt>
      <trkpt lat="49.60429" lon="4.98857">
        <ele>278.44</ele>
        <time>2018-10-11T12:18:22Z</time>
      </trkpt>
      <trkpt lat="49.60425" lon="4.98855">
        <ele>277.96</ele>
        <time>2018-10-11T12:18:25Z</time>
      </trkpt>
      <trkpt lat="49.60405" lon="4.98845">
        <ele>276.52</ele>
        <time>2018-10-11T12:18:44Z</time>
      </trkpt>
      <trkpt lat="49.60401" lon="4.98845">
        <ele>276.04</ele>
        <time>2018-10-11T12:18:48Z</time>
      </trkpt>
      <trkpt lat="49.60383" lon="4.98835">
        <ele>270.75</ele>
        <time>2018-10-11T12:19:06Z</time>
      </trkpt>
      <trkpt lat="49.60362" lon="4.98817">
        <ele>270.27</ele>
        <time>2018-10-11T12:19:25Z</time>
      </trkpt>
      <trkpt lat="49.60337" lon="4.98803">
        <ele>269.31</ele>
        <time>2018-10-11T12:19:46Z</time>
      </trkpt>
      <trkpt lat="49.60327" lon="4.98802">
        <ele>267.86</ele>
        <time>2018-10-11T12:19:56Z</time>
      </trkpt>
      <trkpt lat="49.60308" lon="4.98794">
        <ele>265.46</ele>
        <time>2018-10-11T12:20:15Z</time>
      </trkpt>
      <trkpt lat="49.6029" lon="4.9879">
        <ele>264.98</ele>
        <time>2018-10-11T12:20:34Z</time>
      </trkpt>
      <trkpt lat="49.60265" lon="4.98777">
        <ele>266.42</ele>
        <time>2018-10-11T12:20:52Z</time>
      </trkpt>
      <trkpt lat="49.60248" lon="4.98777">
        <ele>263.54</ele>
        <time>2018-10-11T12:21:09Z</time>
      </trkpt>
      <trkpt lat="49.60238" lon="4.98779">
        <ele>262.58</ele>
        <time>2018-10-11T12:21:18Z</time>
      </trkpt>
      <trkpt lat="49.60212" lon="4.98774">
        <ele>264.02</ele>
        <time>2018-10-11T12:21:40Z</time>
      </trkpt>
      <trkpt lat="49.60193" lon="4.98766">
        <ele>264.02</ele>
        <time>2018-10-11T12:21:58Z</time>
      </trkpt>
      <trkpt lat="49.60184" lon="4.98755">
        <ele>263.54</ele>
        <time>2018-10-11T12:22:08Z</time>
      </trkpt>
      <trkpt lat="49.60182" lon="4.98752">
        <ele>264.02</ele>
        <time>2018-10-11T12:22:10Z</time>
      </trkpt>
      <trkpt lat="49.60163" lon="4.98728">
        <ele>264.98</ele>
        <time>2018-10-11T12:22:30Z</time>
      </trkpt>
      <trkpt lat="49.60146" lon="4.98705">
        <ele>267.86</ele>
        <time>2018-10-11T12:22:49Z</time>
      </trkpt>
      <trkpt lat="49.60143" lon="4.987">
        <ele>268.35</ele>
        <time>2018-10-11T12:22:52Z</time>
      </trkpt>
      <trkpt lat="49.60125" lon="4.98672">
        <ele>273.15</ele>
        <time>2018-10-11T12:23:11Z</time>
      </trkpt>
      <trkpt lat="49.60107" lon="4.98634">
        <ele>285.65</ele>
        <time>2018-10-11T12:23:30Z</time>
      </trkpt>
      <trkpt lat="49.60092" lon="4.98614">
        <ele>292.86</ele>
        <time>2018-10-11T12:23:50Z</time>
      </trkpt>
      <trkpt lat="49.60077" lon="4.98605">
        <ele>298.15</ele>
        <time>2018-10-11T12:24:08Z</time>
      </trkpt>
      <trkpt lat="49.60071" lon="4.98608">
        <ele>299.59</ele>
        <time>2018-10-11T12:24:15Z</time>
      </trkpt>
      <trkpt lat="49.60061" lon="4.98613">
        <ele>300.07</ele>
        <time>2018-10-11T12:24:32Z</time>
      </trkpt>
      <trkpt lat="49.60052" lon="4.98615">
        <ele>301.51</ele>
        <time>2018-10-11T12:24:50Z</time>
      </trkpt>
      <trkpt lat="49.60036" lon="4.98611">
        <ele>301.51</ele>
        <time>2018-10-11T12:25:07Z</time>
      </trkpt>
      <trkpt lat="49.60018" lon="4.98602">
        <ele>300.07</ele>
        <time>2018-10-11T12:25:27Z</time>
      </trkpt>
      <trkpt lat="49.59999" lon="4.9859">
        <ele>299.11</ele>
        <time>2018-10-11T12:25:47Z</time>
      </trkpt>
      <trkpt lat="49.59993" lon="4.98586">
        <ele>299.59</ele>
        <time>2018-10-11T12:25:53Z</time>
      </trkpt>
      <trkpt lat="49.59968" lon="4.98571">
        <ele>300.07</ele>
        <time>2018-10-11T12:26:11Z</time>
      </trkpt>
      <trkpt lat="49.5995" lon="4.98562">
        <ele>299.11</ele>
        <time>2018-10-11T12:26:30Z</time>
      </trkpt>
      <trkpt lat="49.59934" lon="4.98554">
        <ele>298.15</ele>
        <time>2018-10-11T12:26:46Z</time>
      </trkpt>
      <trkpt lat="49.59921" lon="4.9854">
        <ele>297.18</ele>
        <time>2018-10-11T12:27:04Z</time>
      </trkpt>
      <trkpt lat="49.59911" lon="4.98517">
        <ele>294.78</ele>
        <time>2018-10-11T12:27:26Z</time>
      </trkpt>
      <trkpt lat="49.59903" lon="4.98493">
        <ele>294.3</ele>
        <time>2018-10-11T12:27:47Z</time>
      </trkpt>
      <trkpt lat="49.5989" lon="4.98466">
        <ele>294.78</ele>
        <time>2018-10-11T12:28:06Z</time>
      </trkpt>
      <trkpt lat="49.59882" lon="4.98442">
        <ele>294.78</ele>
        <time>2018-10-11T12:28:25Z</time>
      </trkpt>
      <trkpt lat="49.59871" lon="4.98416">
        <ele>294.78</ele>
        <time>2018-10-11T12:28:45Z</time>
      </trkpt>
      <trkpt lat="49.59859" lon="4.98389">
        <ele>296.7</ele>
        <time>2018-10-11T12:29:05Z</time>
      </trkpt>
      <trkpt lat="49.59852" lon="4.98368">
        <ele>301.03</ele>
        <time>2018-10-11T12:29:24Z</time>
      </trkpt>
      <trkpt lat="49.5985" lon="4.98362">
        <ele>301.03</ele>
        <time>2018-10-11T12:29:27Z</time>
      </trkpt>
      <trkpt lat="49.59833" lon="4.98325">
        <ele>304.39</ele>
        <time>2018-10-11T12:29:49Z</time>
      </trkpt>
      <trkpt lat="49.5982" lon="4.98299">
        <ele>305.84</ele>
        <time>2018-10-11T12:30:07Z</time>
      </trkpt>
      <trkpt lat="49.59814" lon="4.98272">
        <ele>305.84</ele>
        <time>2018-10-11T12:30:23Z</time>
      </trkpt>
      <trkpt lat="49.59813" lon="4.98268">
        <ele>305.84</ele>
        <time>2018-10-11T12:30:25Z</time>
      </trkpt>
      <trkpt lat="49.59797" lon="4.98235">
        <ele>306.8</ele>
        <time>2018-10-11T12:30:46Z</time>
      </trkpt>
      <trkpt lat="49.59789" lon="4.98207">
        <ele>307.28</ele>
        <time>2018-10-11T12:31:03Z</time>
      </trkpt>
      <trkpt lat="49.59779" lon="4.98177">
        <ele>308.72</ele>
        <time>2018-10-11T12:31:25Z</time>
      </trkpt>
      <trkpt lat="49.59771" lon="4.98151">
        <ele>309.2</ele>
        <time>2018-10-11T12:31:41Z</time>
      </trkpt>
      <trkpt lat="49.59763" lon="4.98128">
        <ele>309.2</ele>
        <time>2018-10-11T12:31:57Z</time>
      </trkpt>
      <trkpt lat="49.5975" lon="4.98099">
        <ele>305.84</ele>
        <time>2018-10-11T12:32:17Z</time>
      </trkpt>
      <trkpt lat="49.59742" lon="4.98074">
        <ele>304.39</ele>
        <time>2018-10-11T12:32:34Z</time>
      </trkpt>
      <trkpt lat="49.59731" lon="4.98049">
        <ele>305.84</ele>
        <time>2018-10-11T12:32:52Z</time>
      </trkpt>
      <trkpt lat="49.59719" lon="4.98023">
        <ele>304.39</ele>
        <time>2018-10-11T12:33:11Z</time>
      </trkpt>
      <trkpt lat="49.59709" lon="4.97994">
        <ele>304.88</ele>
        <time>2018-10-11T12:33:31Z</time>
      </trkpt>
      <trkpt lat="49.59696" lon="4.97967">
        <ele>307.76</ele>
        <time>2018-10-11T12:33:51Z</time>
      </trkpt>
      <trkpt lat="49.59684" lon="4.97942">
        <ele>309.2</ele>
        <time>2018-10-11T12:34:10Z</time>
      </trkpt>
      <trkpt lat="49.59671" lon="4.97921">
        <ele>308.72</ele>
        <time>2018-10-11T12:34:27Z</time>
      </trkpt>
      <trkpt lat="49.59656" lon="4.97894">
        <ele>309.2</ele>
        <time>2018-10-11T12:34:47Z</time>
      </trkpt>
      <trkpt lat="49.59651" lon="4.97882">
        <ele>308.24</ele>
        <time>2018-10-11T12:34:57Z</time>
      </trkpt>
      <trkpt lat="49.59637" lon="4.97853">
        <ele>307.76</ele>
        <time>2018-10-11T12:35:18Z</time>
      </trkpt>
      <trkpt lat="49.5963" lon="4.97838">
        <ele>308.24</ele>
        <time>2018-10-11T12:35:32Z</time>
      </trkpt>
      <trkpt lat="49.59618" lon="4.97813">
        <ele>309.2</ele>
        <time>2018-10-11T12:35:50Z</time>
      </trkpt>
      <trkpt lat="49.59603" lon="4.97785">
        <ele>308.24</ele>
        <time>2018-10-11T12:36:09Z</time>
      </trkpt>
      <trkpt lat="49.59591" lon="4.97764">
        <ele>308.72</ele>
        <time>2018-10-11T12:36:26Z</time>
      </trkpt>
      <trkpt lat="49.59585" lon="4.97752">
        <ele>308.24</ele>
        <time>2018-10-11T12:36:35Z</time>
      </trkpt>
      <trkpt lat="49.59569" lon="4.97723">
        <ele>308.72</ele>
        <time>2018-10-11T12:36:57Z</time>
      </trkpt>
      <trkpt lat="49.59553" lon="4.97692">
        <ele>308.72</ele>
        <time>2018-10-11T12:37:19Z</time>
      </trkpt>
      <trkpt lat="49.5954" lon="4.97666">
        <ele>308.72</ele>
        <time>2018-10-11T12:37:38Z</time>
      </trkpt>
      <trkpt lat="49.59526" lon="4.97639">
        <ele>309.2</ele>
        <time>2018-10-11T12:37:58Z</time>
      </trkpt>
      <trkpt lat="49.59518" lon="4.97626">
        <ele>307.76</ele>
        <time>2018-10-11T12:38:12Z</time>
      </trkpt>
      <trkpt lat="49.59501" lon="4.97593">
        <ele>308.24</ele>
        <time>2018-10-11T12:38:36Z</time>
      </trkpt>
      <trkpt lat="49.59486" lon="4.97567">
        <ele>307.76</ele>
        <time>2018-10-11T12:38:56Z</time>
      </trkpt>
      <trkpt lat="49.59472" lon="4.97542">
        <ele>308.24</ele>
        <time>2018-10-11T12:39:15Z</time>
      </trkpt>
      <trkpt lat="49.59461" lon="4.97523">
        <ele>309.2</ele>
        <time>2018-10-11T12:39:32Z</time>
      </trkpt>
      <trkpt lat="49.59448" lon="4.97498">
        <ele>309.2</ele>
        <time>2018-10-11T12:39:53Z</time>
      </trkpt>
      <trkpt lat="49.59431" lon="4.9747">
        <ele>309.68</ele>
        <time>2018-10-11T12:40:15Z</time>
      </trkpt>
      <trkpt lat="49.59421" lon="4.97447">
        <ele>309.68</ele>
        <time>2018-10-11T12:40:33Z</time>
      </trkpt>
      <trkpt lat="49.59413" lon="4.97431">
        <ele>311.12</ele>
        <time>2018-10-11T12:40:49Z</time>
      </trkpt>
      <trkpt lat="49.59413" lon="4.9743">
        <ele>308.24</ele>
        <time>2018-10-11T12:41:04Z</time>
      </trkpt>
      <trkpt lat="49.59412" lon="4.97431">
        <ele>307.76</ele>
        <time>2018-10-11T12:41:09Z</time>
      </trkpt>
      <trkpt lat="49.59398" lon="4.97452">
        <ele>304.39</ele>
        <time>2018-10-11T12:41:26Z</time>
      </trkpt>
      <trkpt lat="49.59382" lon="4.97476">
        <ele>302.95</ele>
        <time>2018-10-11T12:41:45Z</time>
      </trkpt>
      <trkpt lat="49.59368" lon="4.97496">
        <ele>302.47</ele>
        <time>2018-10-11T12:42:01Z</time>
      </trkpt>
      <trkpt lat="49.59352" lon="4.9752">
        <ele>304.88</ele>
        <time>2018-10-11T12:42:21Z</time>
      </trkpt>
      <trkpt lat="49.59337" lon="4.97541">
        <ele>307.28</ele>
        <time>2018-10-11T12:42:39Z</time>
      </trkpt>
      <trkpt lat="49.59322" lon="4.97564">
        <ele>308.24</ele>
        <time>2018-10-11T12:42:57Z</time>
      </trkpt>
      <trkpt lat="49.59305" lon="4.97586">
        <ele>309.68</ele>
        <time>2018-10-11T12:43:17Z</time>
      </trkpt>
      <trkpt lat="49.59286" lon="4.9761">
        <ele>312.09</ele>
        <time>2018-10-11T12:43:39Z</time>
      </trkpt>
      <trkpt lat="49.59271" lon="4.97632">
        <ele>312.09</ele>
        <time>2018-10-11T12:43:58Z</time>
      </trkpt>
      <trkpt lat="49.59252" lon="4.97655">
        <ele>312.09</ele>
        <time>2018-10-11T12:44:19Z</time>
      </trkpt>
      <trkpt lat="49.59237" lon="4.97675">
        <ele>311.12</ele>
        <time>2018-10-11T12:44:38Z</time>
      </trkpt>
      <trkpt lat="49.59223" lon="4.97693">
        <ele>309.68</ele>
        <time>2018-10-11T12:44:56Z</time>
      </trkpt>
      <trkpt lat="49.59204" lon="4.97716">
        <ele>307.28</ele>
        <time>2018-10-11T12:45:18Z</time>
      </trkpt>
      <trkpt lat="49.59184" lon="4.97736">
        <ele>304.88</ele>
        <time>2018-10-11T12:45:39Z</time>
      </trkpt>
      <trkpt lat="49.59162" lon="4.97754">
        <ele>303.91</ele>
        <time>2018-10-11T12:46:00Z</time>
      </trkpt>
      <trkpt lat="49.59141" lon="4.97771">
        <ele>303.43</ele>
        <time>2018-10-11T12:46:21Z</time>
      </trkpt>
      <trkpt lat="49.59119" lon="4.97787">
        <ele>302.95</ele>
        <time>2018-10-11T12:46:42Z</time>
      </trkpt>
      <trkpt lat="49.59101" lon="4.97802">
        <ele>301.99</ele>
        <time>2018-10-11T12:47:01Z</time>
      </trkpt>
      <trkpt lat="49.59083" lon="4.97815">
        <ele>301.51</ele>
        <time>2018-10-11T12:47:20Z</time>
      </trkpt>
      <trkpt lat="49.59059" lon="4.97832">
        <ele>301.03</ele>
        <time>2018-10-11T12:47:45Z</time>
      </trkpt>
      <trkpt lat="49.59037" lon="4.9785">
        <ele>300.55</ele>
        <time>2018-10-11T12:48:07Z</time>
      </trkpt>
      <trkpt lat="49.59011" lon="4.97878">
        <ele>300.07</ele>
        <time>2018-10-11T12:48:32Z</time>
      </trkpt>
      <trkpt lat="49.58987" lon="4.979">
        <ele>303.43</ele>
        <time>2018-10-11T12:48:53Z</time>
      </trkpt>
      <trkpt lat="49.58968" lon="4.97918">
        <ele>304.88</ele>
        <time>2018-10-11T12:49:12Z</time>
      </trkpt>
      <trkpt lat="49.58948" lon="4.97939">
        <ele>305.36</ele>
        <time>2018-10-11T12:49:30Z</time>
      </trkpt>
      <trkpt lat="49.58928" lon="4.97961">
        <ele>304.39</ele>
        <time>2018-10-11T12:49:50Z</time>
      </trkpt>
      <trkpt lat="49.58906" lon="4.97989">
        <ele>302.47</ele>
        <time>2018-10-11T12:50:14Z</time>
      </trkpt>
      <trkpt lat="49.58884" lon="4.98009">
        <ele>301.51</ele>
        <time>2018-10-11T12:50:36Z</time>
      </trkpt>
      <trkpt lat="49.58862" lon="4.98031">
        <ele>302.95</ele>
        <time>2018-10-11T12:50:58Z</time>
      </trkpt>
      <trkpt lat="49.58847" lon="4.98037">
        <ele>303.91</ele>
        <time>2018-10-11T12:51:13Z</time>
      </trkpt>
      <trkpt lat="49.58835" lon="4.98021">
        <ele>304.39</ele>
        <time>2018-10-11T12:51:26Z</time>
      </trkpt>
      <trkpt lat="49.58816" lon="4.97994">
        <ele>304.39</ele>
        <time>2018-10-11T12:51:45Z</time>
      </trkpt>
      <trkpt lat="49.58801" lon="4.97962">
        <ele>302.47</ele>
        <time>2018-10-11T12:52:07Z</time>
      </trkpt>
      <trkpt lat="49.58782" lon="4.9793">
        <ele>302.47</ele>
        <time>2018-10-11T12:52:28Z</time>
      </trkpt>
      <trkpt lat="49.58764" lon="4.97895">
        <ele>303.91</ele>
        <time>2018-10-11T12:52:52Z</time>
      </trkpt>
      <trkpt lat="49.58747" lon="4.97864">
        <ele>302.47</ele>
        <time>2018-10-11T12:53:13Z</time>
      </trkpt>
      <trkpt lat="49.58733" lon="4.97833">
        <ele>301.03</ele>
        <time>2018-10-11T12:53:34Z</time>
      </trkpt>
      <trkpt lat="49.58717" lon="4.97797">
        <ele>301.99</ele>
        <time>2018-10-11T12:53:58Z</time>
      </trkpt>
      <trkpt lat="49.58702" lon="4.97764">
        <ele>299.11</ele>
        <time>2018-10-11T12:54:18Z</time>
      </trkpt>
      <trkpt lat="49.58689" lon="4.97734">
        <ele>296.7</ele>
        <time>2018-10-11T12:54:39Z</time>
      </trkpt>
      <trkpt lat="49.58672" lon="4.97693">
        <ele>298.15</ele>
        <time>2018-10-11T12:55:06Z</time>
      </trkpt>
      <trkpt lat="49.58653" lon="4.97649">
        <ele>302.95</ele>
        <time>2018-10-11T12:55:32Z</time>
      </trkpt>
      <trkpt lat="49.58638" lon="4.97616">
        <ele>305.36</ele>
        <time>2018-10-11T12:55:54Z</time>
      </trkpt>
      <trkpt lat="49.58621" lon="4.97582">
        <ele>304.88</ele>
        <time>2018-10-11T12:56:16Z</time>
      </trkpt>
      <trkpt lat="49.58606" lon="4.97552">
        <ele>302.95</ele>
        <time>2018-10-11T12:56:34Z</time>
      </trkpt>
      <trkpt lat="49.58595" lon="4.97522">
        <ele>300.07</ele>
        <time>2018-10-11T12:56:52Z</time>
      </trkpt>
      <trkpt lat="49.5858" lon="4.97484">
        <ele>297.18</ele>
        <time>2018-10-11T12:57:15Z</time>
      </trkpt>
      <trkpt lat="49.58569" lon="4.97459">
        <ele>292.86</ele>
        <time>2018-10-11T12:57:32Z</time>
      </trkpt>
      <trkpt lat="49.58553" lon="4.97425">
        <ele>288.05</ele>
        <time>2018-10-11T12:57:52Z</time>
      </trkpt>
      <trkpt lat="49.58542" lon="4.97394">
        <ele>289.97</ele>
        <time>2018-10-11T12:58:13Z</time>
      </trkpt>
      <trkpt lat="49.58523" lon="4.97355">
        <ele>297.18</ele>
        <time>2018-10-11T12:58:41Z</time>
      </trkpt>
      <trkpt lat="49.58503" lon="4.97314">
        <ele>302.95</ele>
        <time>2018-10-11T12:59:09Z</time>
      </trkpt>
      <trkpt lat="49.58487" lon="4.97272">
        <ele>303.43</ele>
        <time>2018-10-11T12:59:33Z</time>
      </trkpt>
      <trkpt lat="49.58472" lon="4.97234">
        <ele>302.47</ele>
        <time>2018-10-11T12:59:55Z</time>
      </trkpt>
      <trkpt lat="49.58457" lon="4.972">
        <ele>297.67</ele>
        <time>2018-10-11T13:00:14Z</time>
      </trkpt>
      <trkpt lat="49.58441" lon="4.97156">
        <ele>291.42</ele>
        <time>2018-10-11T13:00:38Z</time>
      </trkpt>
      <trkpt lat="49.5843" lon="4.97116">
        <ele>286.61</ele>
        <time>2018-10-11T13:00:59Z</time>
      </trkpt>
      <trkpt lat="49.58422" lon="4.97084">
        <ele>281.8</ele>
        <time>2018-10-11T13:01:18Z</time>
      </trkpt>
      <trkpt lat="49.58411" lon="4.97047">
        <ele>274.11</ele>
        <time>2018-10-11T13:01:43Z</time>
      </trkpt>
      <trkpt lat="49.58398" lon="4.97008">
        <ele>265.46</ele>
        <time>2018-10-11T13:02:05Z</time>
      </trkpt>
      <trkpt lat="49.58385" lon="4.96969">
        <ele>257.77</ele>
        <time>2018-10-11T13:02:27Z</time>
      </trkpt>
      <trkpt lat="49.58371" lon="4.96936">
        <ele>250.56</ele>
        <time>2018-10-11T13:02:48Z</time>
      </trkpt>
      <trkpt lat="49.58353" lon="4.96893">
        <ele>248.16</ele>
        <time>2018-10-11T13:03:13Z</time>
      </trkpt>
      <trkpt lat="49.58337" lon="4.9686">
        <ele>249.12</ele>
        <time>2018-10-11T13:03:35Z</time>
      </trkpt>
      <trkpt lat="49.58326" lon="4.96831">
        <ele>248.64</ele>
        <time>2018-10-11T13:03:53Z</time>
      </trkpt>
      <trkpt lat="49.58321" lon="4.96817">
        <ele>253.44</ele>
        <time>2018-10-11T13:04:12Z</time>
      </trkpt>
      <trkpt lat="49.5832" lon="4.96816">
        <ele>262.58</ele>
        <time>2018-10-11T13:04:34Z</time>
      </trkpt>
      <trkpt lat="49.58318" lon="4.96814">
        <ele>271.23</ele>
        <time>2018-10-11T13:04:58Z</time>
      </trkpt>
      <trkpt lat="49.58318" lon="4.96816">
        <ele>270.75</ele>
        <time>2018-10-11T13:05:22Z</time>
      </trkpt>
      <trkpt lat="49.58318" lon="4.96818">
        <ele>271.23</ele>
        <time>2018-10-11T13:05:47Z</time>
      </trkpt>
      <trkpt lat="49.5831" lon="4.96797">
        <ele>270.75</ele>
        <time>2018-10-11T13:06:01Z</time>
      </trkpt>
      <trkpt lat="49.58298" lon="4.96765">
        <ele>268.35</ele>
        <time>2018-10-11T13:06:20Z</time>
      </trkpt>
      <trkpt lat="49.58285" lon="4.96739">
        <ele>264.5</ele>
        <time>2018-10-11T13:06:38Z</time>
      </trkpt>
      <trkpt lat="49.5827" lon="4.96721">
        <ele>264.5</ele>
        <time>2018-10-11T13:06:54Z</time>
      </trkpt>
      <trkpt lat="49.58268" lon="4.96718">
        <ele>266.9</ele>
        <time>2018-10-11T13:07:01Z</time>
      </trkpt>
      <trkpt lat="49.58263" lon="4.96713">
        <ele>268.83</ele>
        <time>2018-10-11T13:07:05Z</time>
      </trkpt>
      <trkpt lat="49.58244" lon="4.96696">
        <ele>270.27</ele>
        <time>2018-10-11T13:07:23Z</time>
      </trkpt>
      <trkpt lat="49.58221" lon="4.96685">
        <ele>267.86</ele>
        <time>2018-10-11T13:07:42Z</time>
      </trkpt>
      <trkpt lat="49.58198" lon="4.96679">
        <ele>264.98</ele>
        <time>2018-10-11T13:08:02Z</time>
      </trkpt>
      <trkpt lat="49.58179" lon="4.96673">
        <ele>263.54</ele>
        <time>2018-10-11T13:08:19Z</time>
      </trkpt>
      <trkpt lat="49.58167" lon="4.96654">
        <ele>261.14</ele>
        <time>2018-10-11T13:08:35Z</time>
      </trkpt>
      <trkpt lat="49.58169" lon="4.96619">
        <ele>257.29</ele>
        <time>2018-10-11T13:08:53Z</time>
      </trkpt>
      <trkpt lat="49.58176" lon="4.96592">
        <ele>252.96</ele>
        <time>2018-10-11T13:09:09Z</time>
      </trkpt>
      <trkpt lat="49.58164" lon="4.96566">
        <ele>251.04</ele>
        <time>2018-10-11T13:09:27Z</time>
      </trkpt>
      <trkpt lat="49.58153" lon="4.96561">
        <ele>251.52</ele>
        <time>2018-10-11T13:09:34Z</time>
      </trkpt>
      <trkpt lat="49.58133" lon="4.96579">
        <ele>248.64</ele>
        <time>2018-10-11T13:09:53Z</time>
      </trkpt>
      <trkpt lat="49.58112" lon="4.96609">
        <ele>247.2</ele>
        <time>2018-10-11T13:10:14Z</time>
      </trkpt>
      <trkpt lat="49.58092" lon="4.96635">
        <ele>243.83</ele>
        <time>2018-10-11T13:10:35Z</time>
      </trkpt>
      <trkpt lat="49.58066" lon="4.96657">
        <ele>240.95</ele>
        <time>2018-10-11T13:10:58Z</time>
      </trkpt>
      <trkpt lat="49.58042" lon="4.96665">
        <ele>238.54</ele>
        <time>2018-10-11T13:11:19Z</time>
      </trkpt>
      <trkpt lat="49.58018" lon="4.96645">
        <ele>239.51</ele>
        <time>2018-10-11T13:11:40Z</time>
      </trkpt>
      <trkpt lat="49.58016" lon="4.96601">
        <ele>242.39</ele>
        <time>2018-10-11T13:12:03Z</time>
      </trkpt>
      <trkpt lat="49.58025" lon="4.96558">
        <ele>247.68</ele>
        <time>2018-10-11T13:12:30Z</time>
      </trkpt>
      <trkpt lat="49.58039" lon="4.96517">
        <ele>250.08</ele>
        <time>2018-10-11T13:12:56Z</time>
      </trkpt>
      <trkpt lat="49.58051" lon="4.96486">
        <ele>252.48</ele>
        <time>2018-10-11T13:13:16Z</time>
      </trkpt>
      <trkpt lat="49.58066" lon="4.96452">
        <ele>253.44</ele>
        <time>2018-10-11T13:13:38Z</time>
      </trkpt>
      <trkpt lat="49.58082" lon="4.96417">
        <ele>252</ele>
        <time>2018-10-11T13:14:02Z</time>
      </trkpt>
      <trkpt lat="49.58098" lon="4.96381">
        <ele>250.56</ele>
        <time>2018-10-11T13:14:26Z</time>
      </trkpt>
      <trkpt lat="49.5811" lon="4.96346">
        <ele>249.12</ele>
        <time>2018-10-11T13:14:49Z</time>
      </trkpt>
      <trkpt lat="49.58115" lon="4.96321">
        <ele>247.68</ele>
        <time>2018-10-11T13:15:04Z</time>
      </trkpt>
      <trkpt lat="49.5812" lon="4.96278">
        <ele>242.87</ele>
        <time>2018-10-11T13:15:27Z</time>
      </trkpt>
      <trkpt lat="49.58119" lon="4.96229">
        <ele>235.66</ele>
        <time>2018-10-11T13:15:54Z</time>
      </trkpt>
      <trkpt lat="49.58115" lon="4.96192">
        <ele>229.89</ele>
        <time>2018-10-11T13:16:14Z</time>
      </trkpt>
      <trkpt lat="49.58109" lon="4.96149">
        <ele>223.16</ele>
        <time>2018-10-11T13:16:38Z</time>
      </trkpt>
      <trkpt lat="49.58105" lon="4.96111">
        <ele>218.36</ele>
        <time>2018-10-11T13:16:59Z</time>
      </trkpt>
      <trkpt lat="49.58104" lon="4.96073">
        <ele>214.51</ele>
        <time>2018-10-11T13:17:19Z</time>
      </trkpt>
      <trkpt lat="49.58102" lon="4.96035">
        <ele>212.11</ele>
        <time>2018-10-11T13:17:40Z</time>
      </trkpt>
      <trkpt lat="49.58105" lon="4.96007">
        <ele>210.19</ele>
        <time>2018-10-11T13:17:56Z</time>
      </trkpt>
      <trkpt lat="49.58112" lon="4.95969">
        <ele>211.63</ele>
        <time>2018-10-11T13:18:17Z</time>
      </trkpt>
      <trkpt lat="49.5812" lon="4.95939">
        <ele>213.55</ele>
        <time>2018-10-11T13:18:37Z</time>
      </trkpt>
      <trkpt lat="49.58129" lon="4.95918">
        <ele>215.47</ele>
        <time>2018-10-11T13:18:52Z</time>
      </trkpt>
      <trkpt lat="49.58148" lon="4.95914">
        <ele>214.51</ele>
        <time>2018-10-11T13:19:11Z</time>
      </trkpt>
      <trkpt lat="49.58148" lon="4.95913">
        <ele>212.59</ele>
        <time>2018-10-11T13:19:30Z</time>
      </trkpt>
      <trkpt lat="49.58149" lon="4.95914">
        <ele>211.63</ele>
        <time>2018-10-11T13:19:46Z</time>
      </trkpt>
      <trkpt lat="49.58149" lon="4.95914">
        <ele>208.74</ele>
        <time>2018-10-11T13:20:20Z</time>
      </trkpt>
      <trkpt lat="49.58149" lon="4.95914">
        <ele>210.19</ele>
        <time>2018-10-11T13:20:52Z</time>
      </trkpt>
      <trkpt lat="49.5815" lon="4.95913">
        <ele>210.19</ele>
        <time>2018-10-11T13:21:26Z</time>
      </trkpt>
      <trkpt lat="49.5815" lon="4.95914">
        <ele>210.67</ele>
        <time>2018-10-11T13:22:00Z</time>
      </trkpt>
      <trkpt lat="49.58151" lon="4.95913">
        <ele>210.67</ele>
        <time>2018-10-11T13:22:40Z</time>
      </trkpt>
      <trkpt lat="49.58151" lon="4.95913">
        <ele>212.11</ele>
        <time>2018-10-11T13:23:20Z</time>
      </trkpt>
      <trkpt lat="49.5815" lon="4.95913">
        <ele>212.59</ele>
        <time>2018-10-11T13:23:59Z</time>
      </trkpt>
      <trkpt lat="49.58151" lon="4.95914">
        <ele>212.11</ele>
        <time>2018-10-11T13:24:40Z</time>
      </trkpt>
      <trkpt lat="49.58151" lon="4.95913">
        <ele>212.59</ele>
        <time>2018-10-11T13:25:13Z</time>
      </trkpt>
      <trkpt lat="49.58151" lon="4.95913">
        <ele>212.59</ele>
        <time>2018-10-11T13:25:46Z</time>
      </trkpt>
      <trkpt lat="49.58151" lon="4.95913">
        <ele>213.55</ele>
        <time>2018-10-11T13:26:16Z</time>
      </trkpt>
      <trkpt lat="49.58151" lon="4.95914">
        <ele>213.07</ele>
        <time>2018-10-11T13:26:47Z</time>
      </trkpt>
      <trkpt lat="49.58151" lon="4.95914">
        <ele>212.11</ele>
        <time>2018-10-11T13:27:20Z</time>
      </trkpt>
      <trkpt lat="49.58151" lon="4.95914">
        <ele>212.11</ele>
        <time>2018-10-11T13:27:51Z</time>
      </trkpt>
      <trkpt lat="49.5815" lon="4.95915">
        <ele>212.11</ele>
        <time>2018-10-11T13:28:23Z</time>
      </trkpt>
      <trkpt lat="49.5815" lon="4.95915">
        <ele>211.15</ele>
        <time>2018-10-11T13:28:54Z</time>
      </trkpt>
      <trkpt lat="49.5815" lon="4.95915">
        <ele>210.67</ele>
        <time>2018-10-11T13:29:30Z</time>
      </trkpt>
      <trkpt lat="49.5815" lon="4.95916">
        <ele>210.67</ele>
        <time>2018-10-11T13:30:01Z</time>
      </trkpt>
      <trkpt lat="49.5815" lon="4.95915">
        <ele>211.15</ele>
        <time>2018-10-11T13:30:29Z</time>
      </trkpt>
      <trkpt lat="49.58149" lon="4.95914">
        <ele>211.63</ele>
        <time>2018-10-11T13:30:45Z</time>
      </trkpt>
      <trkpt lat="49.58149" lon="4.95914">
        <ele>211.63</ele>
        <time>2018-10-11T13:31:05Z</time>
      </trkpt>
      <trkpt lat="49.58146" lon="4.95914">
        <ele>211.15</ele>
        <time>2018-10-11T13:31:21Z</time>
      </trkpt>
      <trkpt lat="49.5814" lon="4.95916">
        <ele>211.15</ele>
        <time>2018-10-11T13:31:30Z</time>
      </trkpt>
      <trkpt lat="49.58135" lon="4.9591">
        <ele>210.67</ele>
        <time>2018-10-11T13:31:35Z</time>
      </trkpt>
      <trkpt lat="49.58118" lon="4.95907">
        <ele>208.74</ele>
        <time>2018-10-11T13:31:51Z</time>
      </trkpt>
      <trkpt lat="49.58116" lon="4.95907">
        <ele>208.74</ele>
        <time>2018-10-11T13:31:53Z</time>
      </trkpt>
      <trkpt lat="49.58105" lon="4.95899">
        <ele>208.26</ele>
        <time>2018-10-11T13:32:05Z</time>
      </trkpt>
      <trkpt lat="49.5809" lon="4.95882">
        <ele>208.74</ele>
        <time>2018-10-11T13:32:23Z</time>
      </trkpt>
      <trkpt lat="49.58073" lon="4.95865">
        <ele>210.67</ele>
        <time>2018-10-11T13:32:40Z</time>
      </trkpt>
      <trkpt lat="49.58056" lon="4.95844">
        <ele>213.07</ele>
        <time>2018-10-11T13:32:59Z</time>
      </trkpt>
      <trkpt lat="49.58042" lon="4.95828">
        <ele>214.99</ele>
        <time>2018-10-11T13:33:17Z</time>
      </trkpt>
      <trkpt lat="49.58024" lon="4.95808">
        <ele>216.43</ele>
        <time>2018-10-11T13:33:34Z</time>
      </trkpt>
      <trkpt lat="49.58006" lon="4.95784">
        <ele>215.95</ele>
        <time>2018-10-11T13:33:56Z</time>
      </trkpt>
      <trkpt lat="49.57991" lon="4.95757">
        <ele>216.91</ele>
        <time>2018-10-11T13:34:17Z</time>
      </trkpt>
      <trkpt lat="49.57982" lon="4.9573">
        <ele>220.76</ele>
        <time>2018-10-11T13:34:38Z</time>
      </trkpt>
      <trkpt lat="49.57976" lon="4.95703">
        <ele>222.68</ele>
        <time>2018-10-11T13:34:56Z</time>
      </trkpt>
      <trkpt lat="49.57975" lon="4.95691">
        <ele>222.68</ele>
        <time>2018-10-11T13:35:03Z</time>
      </trkpt>
      <trkpt lat="49.57974" lon="4.95657">
        <ele>224.12</ele>
        <time>2018-10-11T13:35:21Z</time>
      </trkpt>
      <trkpt lat="49.57977" lon="4.95631">
        <ele>224.12</ele>
        <time>2018-10-11T13:35:37Z</time>
      </trkpt>
      <trkpt lat="49.57979" lon="4.95602">
        <ele>222.68</ele>
        <time>2018-10-11T13:35:56Z</time>
      </trkpt>
      <trkpt lat="49.57982" lon="4.95569">
        <ele>222.68</ele>
        <time>2018-10-11T13:36:15Z</time>
      </trkpt>
      <trkpt lat="49.57984" lon="4.95538">
        <ele>222.2</ele>
        <time>2018-10-11T13:36:34Z</time>
      </trkpt>
      <trkpt lat="49.57987" lon="4.95509">
        <ele>221.72</ele>
        <time>2018-10-11T13:36:52Z</time>
      </trkpt>
      <trkpt lat="49.57985" lon="4.95477">
        <ele>224.61</ele>
        <time>2018-10-11T13:37:10Z</time>
      </trkpt>
      <trkpt lat="49.57987" lon="4.95451">
        <ele>227.97</ele>
        <time>2018-10-11T13:37:25Z</time>
      </trkpt>
      <trkpt lat="49.57986" lon="4.95433">
        <ele>230.85</ele>
        <time>2018-10-11T13:37:35Z</time>
      </trkpt>
      <trkpt lat="49.57988" lon="4.95403">
        <ele>234.7</ele>
        <time>2018-10-11T13:37:54Z</time>
      </trkpt>
      <trkpt lat="49.57991" lon="4.95393">
        <ele>235.66</ele>
        <time>2018-10-11T13:38:00Z</time>
      </trkpt>
      <trkpt lat="49.57992" lon="4.95386">
        <ele>238.06</ele>
        <time>2018-10-11T13:38:19Z</time>
      </trkpt>
      <trkpt lat="49.57991" lon="4.95374">
        <ele>239.02</ele>
        <time>2018-10-11T13:38:35Z</time>
      </trkpt>
      <trkpt lat="49.57998" lon="4.95338">
        <ele>239.51</ele>
        <time>2018-10-11T13:38:56Z</time>
      </trkpt>
      <trkpt lat="49.58006" lon="4.95309">
        <ele>240.95</ele>
        <time>2018-10-11T13:39:14Z</time>
      </trkpt>
      <trkpt lat="49.58012" lon="4.95276">
        <ele>242.39</ele>
        <time>2018-10-11T13:39:34Z</time>
      </trkpt>
      <trkpt lat="49.58014" lon="4.95247">
        <ele>244.31</ele>
        <time>2018-10-11T13:39:51Z</time>
      </trkpt>
      <trkpt lat="49.58013" lon="4.95233">
        <ele>245.75</ele>
        <time>2018-10-11T13:39:59Z</time>
      </trkpt>
      <trkpt lat="49.58005" lon="4.95199">
        <ele>248.64</ele>
        <time>2018-10-11T13:40:20Z</time>
      </trkpt>
      <trkpt lat="49.57991" lon="4.95173">
        <ele>250.08</ele>
        <time>2018-10-11T13:40:39Z</time>
      </trkpt>
      <trkpt lat="49.57975" lon="4.95151">
        <ele>250.56</ele>
        <time>2018-10-11T13:40:56Z</time>
      </trkpt>
      <trkpt lat="49.5796" lon="4.95131">
        <ele>251.04</ele>
        <time>2018-10-11T13:41:13Z</time>
      </trkpt>
      <trkpt lat="49.57944" lon="4.95106">
        <ele>252.48</ele>
        <time>2018-10-11T13:41:34Z</time>
      </trkpt>
      <trkpt lat="49.57937" lon="4.95093">
        <ele>252.96</ele>
        <time>2018-10-11T13:41:47Z</time>
      </trkpt>
      <trkpt lat="49.57925" lon="4.95064">
        <ele>254.89</ele>
        <time>2018-10-11T13:42:07Z</time>
      </trkpt>
      <trkpt lat="49.57917" lon="4.95033">
        <ele>256.33</ele>
        <time>2018-10-11T13:42:25Z</time>
      </trkpt>
      <trkpt lat="49.57913" lon="4.94999">
        <ele>257.77</ele>
        <time>2018-10-11T13:42:45Z</time>
      </trkpt>
      <trkpt lat="49.57912" lon="4.94959">
        <ele>258.25</ele>
        <time>2018-10-11T13:43:08Z</time>
      </trkpt>
      <trkpt lat="49.57911" lon="4.94923">
        <ele>260.17</ele>
        <time>2018-10-11T13:43:28Z</time>
      </trkpt>
      <trkpt lat="49.57911" lon="4.94892">
        <ele>260.65</ele>
        <time>2018-10-11T13:43:46Z</time>
      </trkpt>
      <trkpt lat="49.57909" lon="4.94856">
        <ele>261.62</ele>
        <time>2018-10-11T13:44:06Z</time>
      </trkpt>
      <trkpt lat="49.5791" lon="4.94822">
        <ele>262.1</ele>
        <time>2018-10-11T13:44:25Z</time>
      </trkpt>
      <trkpt lat="49.5791" lon="4.94793">
        <ele>261.62</ele>
        <time>2018-10-11T13:44:42Z</time>
      </trkpt>
      <trkpt lat="49.5791" lon="4.94766">
        <ele>261.62</ele>
        <time>2018-10-11T13:44:58Z</time>
      </trkpt>
      <trkpt lat="49.5791" lon="4.94731">
        <ele>260.65</ele>
        <time>2018-10-11T13:45:18Z</time>
      </trkpt>
      <trkpt lat="49.57909" lon="4.94693">
        <ele>260.65</ele>
        <time>2018-10-11T13:45:39Z</time>
      </trkpt>
      <trkpt lat="49.57907" lon="4.94654">
        <ele>258.73</ele>
        <time>2018-10-11T13:45:59Z</time>
      </trkpt>
      <trkpt lat="49.5791" lon="4.94628">
        <ele>255.37</ele>
        <time>2018-10-11T13:46:17Z</time>
      </trkpt>
      <trkpt lat="49.57913" lon="4.94626">
        <ele>256.33</ele>
        <time>2018-10-11T13:46:32Z</time>
      </trkpt>
      <trkpt lat="49.57938" lon="4.94634">
        <ele>254.89</ele>
        <time>2018-10-11T13:46:54Z</time>
      </trkpt>
      <trkpt lat="49.57961" lon="4.94643">
        <ele>253.44</ele>
        <time>2018-10-11T13:47:14Z</time>
      </trkpt>
      <trkpt lat="49.57967" lon="4.94646">
        <ele>252.96</ele>
        <time>2018-10-11T13:47:20Z</time>
      </trkpt>
      <trkpt lat="49.57996" lon="4.94663">
        <ele>254.89</ele>
        <time>2018-10-11T13:47:44Z</time>
      </trkpt>
      <trkpt lat="49.58021" lon="4.94671">
        <ele>255.37</ele>
        <time>2018-10-11T13:48:03Z</time>
      </trkpt>
      <trkpt lat="49.58046" lon="4.94685">
        <ele>257.77</ele>
        <time>2018-10-11T13:48:25Z</time>
      </trkpt>
      <trkpt lat="49.58071" lon="4.94696">
        <ele>259.69</ele>
        <time>2018-10-11T13:48:45Z</time>
      </trkpt>
      <trkpt lat="49.58093" lon="4.94707">
        <ele>259.21</ele>
        <time>2018-10-11T13:49:03Z</time>
      </trkpt>
      <trkpt lat="49.5812" lon="4.94729">
        <ele>259.21</ele>
        <time>2018-10-11T13:49:27Z</time>
      </trkpt>
      <trkpt lat="49.58142" lon="4.9475">
        <ele>260.17</ele>
        <time>2018-10-11T13:49:49Z</time>
      </trkpt>
      <trkpt lat="49.58167" lon="4.94772">
        <ele>261.14</ele>
        <time>2018-10-11T13:50:10Z</time>
      </trkpt>
      <trkpt lat="49.58187" lon="4.94791">
        <ele>260.65</ele>
        <time>2018-10-11T13:50:30Z</time>
      </trkpt>
      <trkpt lat="49.58209" lon="4.94811">
        <ele>261.14</ele>
        <time>2018-10-11T13:50:50Z</time>
      </trkpt>
      <trkpt lat="49.58232" lon="4.9483">
        <ele>260.65</ele>
        <time>2018-10-11T13:51:12Z</time>
      </trkpt>
      <trkpt lat="49.58257" lon="4.94851">
        <ele>260.17</ele>
        <time>2018-10-11T13:51:36Z</time>
      </trkpt>
      <trkpt lat="49.58282" lon="4.94872">
        <ele>260.17</ele>
        <time>2018-10-11T13:52:00Z</time>
      </trkpt>
      <trkpt lat="49.58293" lon="4.94883">
        <ele>260.17</ele>
        <time>2018-10-11T13:52:12Z</time>
      </trkpt>
      <trkpt lat="49.58309" lon="4.949">
        <ele>261.62</ele>
        <time>2018-10-11T13:52:28Z</time>
      </trkpt>
      <trkpt lat="49.58333" lon="4.9492">
        <ele>263.06</ele>
        <time>2018-10-11T13:52:52Z</time>
      </trkpt>
      <trkpt lat="49.58353" lon="4.94936">
        <ele>263.54</ele>
        <time>2018-10-11T13:53:12Z</time>
      </trkpt>
      <trkpt lat="49.58364" lon="4.94943">
        <ele>264.5</ele>
        <time>2018-10-11T13:53:23Z</time>
      </trkpt>
      <trkpt lat="49.58368" lon="4.94944">
        <ele>264.5</ele>
        <time>2018-10-11T13:53:27Z</time>
      </trkpt>
      <trkpt lat="49.58395" lon="4.94959">
        <ele>267.38</ele>
        <time>2018-10-11T13:53:53Z</time>
      </trkpt>
      <trkpt lat="49.58416" lon="4.94969">
        <ele>268.83</ele>
        <time>2018-10-11T13:54:13Z</time>
      </trkpt>
      <trkpt lat="49.58442" lon="4.94981">
        <ele>270.27</ele>
        <time>2018-10-11T13:54:37Z</time>
      </trkpt>
      <trkpt lat="49.5846" lon="4.94991">
        <ele>269.31</ele>
        <time>2018-10-11T13:54:55Z</time>
      </trkpt>
      <trkpt lat="49.58464" lon="4.94993">
        <ele>269.31</ele>
        <time>2018-10-11T13:54:58Z</time>
      </trkpt>
      <trkpt lat="49.58485" lon="4.95007">
        <ele>270.75</ele>
        <time>2018-10-11T13:55:20Z</time>
      </trkpt>
      <trkpt lat="49.58503" lon="4.9502">
        <ele>270.75</ele>
        <time>2018-10-11T13:55:39Z</time>
      </trkpt>
      <trkpt lat="49.5852" lon="4.95042">
        <ele>266.9</ele>
        <time>2018-10-11T13:55:58Z</time>
      </trkpt>
      <trkpt lat="49.58538" lon="4.9506">
        <ele>265.94</ele>
        <time>2018-10-11T13:56:18Z</time>
      </trkpt>
      <trkpt lat="49.58553" lon="4.95078">
        <ele>265.46</ele>
        <time>2018-10-11T13:56:36Z</time>
      </trkpt>
      <trkpt lat="49.58572" lon="4.95102">
        <ele>264.5</ele>
        <time>2018-10-11T13:56:57Z</time>
      </trkpt>
      <trkpt lat="49.58589" lon="4.9512">
        <ele>260.65</ele>
        <time>2018-10-11T13:57:15Z</time>
      </trkpt>
      <trkpt lat="49.58606" lon="4.95138">
        <ele>255.85</ele>
        <time>2018-10-11T13:57:36Z</time>
      </trkpt>
      <trkpt lat="49.58625" lon="4.95155">
        <ele>253.44</ele>
        <time>2018-10-11T13:57:59Z</time>
      </trkpt>
      <trkpt lat="49.58643" lon="4.95172">
        <ele>250.56</ele>
        <time>2018-10-11T13:58:19Z</time>
      </trkpt>
      <trkpt lat="49.58664" lon="4.95195">
        <ele>246.72</ele>
        <time>2018-10-11T13:58:43Z</time>
      </trkpt>
      <trkpt lat="49.58679" lon="4.95212">
        <ele>244.31</ele>
        <time>2018-10-11T13:59:03Z</time>
      </trkpt>
      <trkpt lat="49.58691" lon="4.95231">
        <ele>246.23</ele>
        <time>2018-10-11T13:59:23Z</time>
      </trkpt>
      <trkpt lat="49.58703" lon="4.95251">
        <ele>245.75</ele>
        <time>2018-10-11T13:59:41Z</time>
      </trkpt>
      <trkpt lat="49.58716" lon="4.95284">
        <ele>243.35</ele>
        <time>2018-10-11T14:00:03Z</time>
      </trkpt>
      <trkpt lat="49.58732" lon="4.95303">
        <ele>240.47</ele>
        <time>2018-10-11T14:00:23Z</time>
      </trkpt>
      <trkpt lat="49.58747" lon="4.95317">
        <ele>236.14</ele>
        <time>2018-10-11T14:00:43Z</time>
      </trkpt>
      <trkpt lat="49.58766" lon="4.95331">
        <ele>230.37</ele>
        <time>2018-10-11T14:01:04Z</time>
      </trkpt>
      <trkpt lat="49.58784" lon="4.95344">
        <ele>229.41</ele>
        <time>2018-10-11T14:01:26Z</time>
      </trkpt>
      <trkpt lat="49.58799" lon="4.95362">
        <ele>229.41</ele>
        <time>2018-10-11T14:01:46Z</time>
      </trkpt>
      <trkpt lat="49.5882" lon="4.95379">
        <ele>227.49</ele>
        <time>2018-10-11T14:02:10Z</time>
      </trkpt>
      <trkpt lat="49.58838" lon="4.95391">
        <ele>224.61</ele>
        <time>2018-10-11T14:02:31Z</time>
      </trkpt>
      <trkpt lat="49.58864" lon="4.95405">
        <ele>220.28</ele>
        <time>2018-10-11T14:02:54Z</time>
      </trkpt>
      <trkpt lat="49.58881" lon="4.95407">
        <ele>216.43</ele>
        <time>2018-10-11T14:03:13Z</time>
      </trkpt>
      <trkpt lat="49.58902" lon="4.95409">
        <ele>210.67</ele>
        <time>2018-10-11T14:03:34Z</time>
      </trkpt>
      <trkpt lat="49.5892" lon="4.95408">
        <ele>206.82</ele>
        <time>2018-10-11T14:03:51Z</time>
      </trkpt>
      <trkpt lat="49.58945" lon="4.9541">
        <ele>204.42</ele>
        <time>2018-10-11T14:04:14Z</time>
      </trkpt>
      <trkpt lat="49.58965" lon="4.95411">
        <ele>201.53</ele>
        <time>2018-10-11T14:04:34Z</time>
      </trkpt>
      <trkpt lat="49.58984" lon="4.95413">
        <ele>201.53</ele>
        <time>2018-10-11T14:04:52Z</time>
      </trkpt>
      <trkpt lat="49.59002" lon="4.95417">
        <ele>200.09</ele>
        <time>2018-10-11T14:05:10Z</time>
      </trkpt>
      <trkpt lat="49.59026" lon="4.9542">
        <ele>199.61</ele>
        <time>2018-10-11T14:05:29Z</time>
      </trkpt>
      <trkpt lat="49.5905" lon="4.95421">
        <ele>198.17</ele>
        <time>2018-10-11T14:05:48Z</time>
      </trkpt>
      <trkpt lat="49.59076" lon="4.95422">
        <ele>196.73</ele>
        <time>2018-10-11T14:06:09Z</time>
      </trkpt>
      <trkpt lat="49.59099" lon="4.95422">
        <ele>195.28</ele>
        <time>2018-10-11T14:06:30Z</time>
      </trkpt>
      <trkpt lat="49.59124" lon="4.9542">
        <ele>195.28</ele>
        <time>2018-10-11T14:06:50Z</time>
      </trkpt>
      <trkpt lat="49.59146" lon="4.95419">
        <ele>195.28</ele>
        <time>2018-10-11T14:07:09Z</time>
      </trkpt>
      <trkpt lat="49.59166" lon="4.9542">
        <ele>196.25</ele>
        <time>2018-10-11T14:07:27Z</time>
      </trkpt>
      <trkpt lat="49.59195" lon="4.95417">
        <ele>196.25</ele>
        <time>2018-10-11T14:07:50Z</time>
      </trkpt>
      <trkpt lat="49.59218" lon="4.95413">
        <ele>198.17</ele>
        <time>2018-10-11T14:08:10Z</time>
      </trkpt>
      <trkpt lat="49.59237" lon="4.95413">
        <ele>197.21</ele>
        <time>2018-10-11T14:08:27Z</time>
      </trkpt>
      <trkpt lat="49.59258" lon="4.95408">
        <ele>195.28</ele>
        <time>2018-10-11T14:08:45Z</time>
      </trkpt>
      <trkpt lat="49.5928" lon="4.95407">
        <ele>193.36</ele>
        <time>2018-10-11T14:09:05Z</time>
      </trkpt>
      <trkpt lat="49.59304" lon="4.9541">
        <ele>191.44</ele>
        <time>2018-10-11T14:09:25Z</time>
      </trkpt>
      <trkpt lat="49.59328" lon="4.95417">
        <ele>191.44</ele>
        <time>2018-10-11T14:09:46Z</time>
      </trkpt>
      <trkpt lat="49.59346" lon="4.95432">
        <ele>192.4</ele>
        <time>2018-10-11T14:10:03Z</time>
      </trkpt>
      <trkpt lat="49.59372" lon="4.95454">
        <ele>196.73</ele>
        <time>2018-10-11T14:10:27Z</time>
      </trkpt>
      <trkpt lat="49.59394" lon="4.95467">
        <ele>194.8</ele>
        <time>2018-10-11T14:10:49Z</time>
      </trkpt>
      <trkpt lat="49.59415" lon="4.95483">
        <ele>193.84</ele>
        <time>2018-10-11T14:11:08Z</time>
      </trkpt>
      <trkpt lat="49.59442" lon="4.95495">
        <ele>194.8</ele>
        <time>2018-10-11T14:11:31Z</time>
      </trkpt>
      <trkpt lat="49.59464" lon="4.95504">
        <ele>198.17</ele>
        <time>2018-10-11T14:11:51Z</time>
      </trkpt>
      <trkpt lat="49.59487" lon="4.95506">
        <ele>198.17</ele>
        <time>2018-10-11T14:12:13Z</time>
      </trkpt>
      <trkpt lat="49.59489" lon="4.95505">
        <ele>197.69</ele>
        <time>2018-10-11T14:12:15Z</time>
      </trkpt>
      <trkpt lat="49.59512" lon="4.95503">
        <ele>197.21</ele>
        <time>2018-10-11T14:12:33Z</time>
      </trkpt>
      <trkpt lat="49.59532" lon="4.95496">
        <ele>196.25</ele>
        <time>2018-10-11T14:12:51Z</time>
      </trkpt>
      <trkpt lat="49.59555" lon="4.9549">
        <ele>195.28</ele>
        <time>2018-10-11T14:13:13Z</time>
      </trkpt>
      <trkpt lat="49.5958" lon="4.95484">
        <ele>191.92</ele>
        <time>2018-10-11T14:13:37Z</time>
      </trkpt>
      <trkpt lat="49.59603" lon="4.95485">
        <ele>190.96</ele>
        <time>2018-10-11T14:13:56Z</time>
      </trkpt>
      <trkpt lat="49.59629" lon="4.95485">
        <ele>191.92</ele>
        <time>2018-10-11T14:14:17Z</time>
      </trkpt>
      <trkpt lat="49.59645" lon="4.95487">
        <ele>190</ele>
        <time>2018-10-11T14:14:33Z</time>
      </trkpt>
      <trkpt lat="49.59664" lon="4.95492">
        <ele>192.4</ele>
        <time>2018-10-11T14:14:49Z</time>
      </trkpt>
      <trkpt lat="49.59689" lon="4.95491">
        <ele>191.92</ele>
        <time>2018-10-11T14:15:11Z</time>
      </trkpt>
      <trkpt lat="49.59713" lon="4.95494">
        <ele>192.4</ele>
        <time>2018-10-11T14:15:33Z</time>
      </trkpt>
      <trkpt lat="49.59738" lon="4.95497">
        <ele>193.84</ele>
        <time>2018-10-11T14:15:53Z</time>
      </trkpt>
      <trkpt lat="49.59757" lon="4.955">
        <ele>190</ele>
        <time>2018-10-11T14:16:11Z</time>
      </trkpt>
      <trkpt lat="49.59771" lon="4.955">
        <ele>191.44</ele>
        <time>2018-10-11T14:16:26Z</time>
      </trkpt>
      <trkpt lat="49.59796" lon="4.95495">
        <ele>189.04</ele>
        <time>2018-10-11T14:16:47Z</time>
      </trkpt>
      <trkpt lat="49.59822" lon="4.95489">
        <ele>186.63</ele>
        <time>2018-10-11T14:17:09Z</time>
      </trkpt>
      <trkpt lat="49.59842" lon="4.95485">
        <ele>185.19</ele>
        <time>2018-10-11T14:17:29Z</time>
      </trkpt>
      <trkpt lat="49.59854" lon="4.95479">
        <ele>187.11</ele>
        <time>2018-10-11T14:17:44Z</time>
      </trkpt>
      <trkpt lat="49.59874" lon="4.95481">
        <ele>187.11</ele>
        <time>2018-10-11T14:18:04Z</time>
      </trkpt>
      <trkpt lat="49.59894" lon="4.95469">
        <ele>188.08</ele>
        <time>2018-10-11T14:18:23Z</time>
      </trkpt>
      <trkpt lat="49.59917" lon="4.9546">
        <ele>186.63</ele>
        <time>2018-10-11T14:18:43Z</time>
      </trkpt>
      <trkpt lat="49.59934" lon="4.95462">
        <ele>180.87</ele>
        <time>2018-10-11T14:19:01Z</time>
      </trkpt>
      <trkpt lat="49.59939" lon="4.95468">
        <ele>179.42</ele>
        <time>2018-10-11T14:19:06Z</time>
      </trkpt>
      <trkpt lat="49.59947" lon="4.95477">
        <ele>184.23</ele>
        <time>2018-10-11T14:19:22Z</time>
      </trkpt>
      <trkpt lat="49.59966" lon="4.95485">
        <ele>180.87</ele>
        <time>2018-10-11T14:19:40Z</time>
      </trkpt>
      <trkpt lat="49.59985" lon="4.95495">
        <ele>177.5</ele>
        <time>2018-10-11T14:19:59Z</time>
      </trkpt>
      <trkpt lat="49.6001" lon="4.95511">
        <ele>178.46</ele>
        <time>2018-10-11T14:20:20Z</time>
      </trkpt>
      <trkpt lat="49.60036" lon="4.95528">
        <ele>179.42</ele>
        <time>2018-10-11T14:20:42Z</time>
      </trkpt>
      <trkpt lat="49.60061" lon="4.95542">
        <ele>177.98</ele>
        <time>2018-10-11T14:21:04Z</time>
      </trkpt>
      <trkpt lat="49.60083" lon="4.95552">
        <ele>177.5</ele>
        <time>2018-10-11T14:21:25Z</time>
      </trkpt>
      <trkpt lat="49.60106" lon="4.95563">
        <ele>178.46</ele>
        <time>2018-10-11T14:21:46Z</time>
      </trkpt>
      <trkpt lat="49.60127" lon="4.95573">
        <ele>179.9</ele>
        <time>2018-10-11T14:22:06Z</time>
      </trkpt>
      <trkpt lat="49.60147" lon="4.95572">
        <ele>180.87</ele>
        <time>2018-10-11T14:22:25Z</time>
      </trkpt>
      <trkpt lat="49.60169" lon="4.95571">
        <ele>182.31</ele>
        <time>2018-10-11T14:22:46Z</time>
      </trkpt>
      <trkpt lat="49.60176" lon="4.95569">
        <ele>181.83</ele>
        <time>2018-10-11T14:22:54Z</time>
      </trkpt>
      <trkpt lat="49.60203" lon="4.95564">
        <ele>183.27</ele>
        <time>2018-10-11T14:23:16Z</time>
      </trkpt>
      <trkpt lat="49.60223" lon="4.95555">
        <ele>183.75</ele>
        <time>2018-10-11T14:23:34Z</time>
      </trkpt>
      <trkpt lat="49.60243" lon="4.95554">
        <ele>182.31</ele>
        <time>2018-10-11T14:23:51Z</time>
      </trkpt>
      <trkpt lat="49.60261" lon="4.95561">
        <ele>181.35</ele>
        <time>2018-10-11T14:24:07Z</time>
      </trkpt>
      <trkpt lat="49.60265" lon="4.95563">
        <ele>181.83</ele>
        <time>2018-10-11T14:24:10Z</time>
      </trkpt>
      <trkpt lat="49.60271" lon="4.95561">
        <ele>182.79</ele>
        <time>2018-10-11T14:24:14Z</time>
      </trkpt>
      <trkpt lat="49.60291" lon="4.95546">
        <ele>187.59</ele>
        <time>2018-10-11T14:24:31Z</time>
      </trkpt>
      <trkpt lat="49.60313" lon="4.95533">
        <ele>187.59</ele>
        <time>2018-10-11T14:24:50Z</time>
      </trkpt>
      <trkpt lat="49.60335" lon="4.95534">
        <ele>188.56</ele>
        <time>2018-10-11T14:25:11Z</time>
      </trkpt>
      <trkpt lat="49.60357" lon="4.95544">
        <ele>191.44</ele>
        <time>2018-10-11T14:25:31Z</time>
      </trkpt>
      <trkpt lat="49.60379" lon="4.95546">
        <ele>191.44</ele>
        <time>2018-10-11T14:25:49Z</time>
      </trkpt>
      <trkpt lat="49.60403" lon="4.95545">
        <ele>192.4</ele>
        <time>2018-10-11T14:26:11Z</time>
      </trkpt>
      <trkpt lat="49.60417" lon="4.95533">
        <ele>191.92</ele>
        <time>2018-10-11T14:26:28Z</time>
      </trkpt>
      <trkpt lat="49.60441" lon="4.95521">
        <ele>195.77</ele>
        <time>2018-10-11T14:26:46Z</time>
      </trkpt>
      <trkpt lat="49.60463" lon="4.95506">
        <ele>194.8</ele>
        <time>2018-10-11T14:27:06Z</time>
      </trkpt>
      <trkpt lat="49.60482" lon="4.95493">
        <ele>196.25</ele>
        <time>2018-10-11T14:27:23Z</time>
      </trkpt>
      <trkpt lat="49.60503" lon="4.95484">
        <ele>198.17</ele>
        <time>2018-10-11T14:27:39Z</time>
      </trkpt>
      <trkpt lat="49.60522" lon="4.95469">
        <ele>198.65</ele>
        <time>2018-10-11T14:27:57Z</time>
      </trkpt>
      <trkpt lat="49.60538" lon="4.95456">
        <ele>196.25</ele>
        <time>2018-10-11T14:28:14Z</time>
      </trkpt>
      <trkpt lat="49.60553" lon="4.95449">
        <ele>194.8</ele>
        <time>2018-10-11T14:28:31Z</time>
      </trkpt>
      <trkpt lat="49.60569" lon="4.95445">
        <ele>193.84</ele>
        <time>2018-10-11T14:28:47Z</time>
      </trkpt>
      <trkpt lat="49.60585" lon="4.95443">
        <ele>191.92</ele>
        <time>2018-10-11T14:29:04Z</time>
      </trkpt>
      <trkpt lat="49.60591" lon="4.95446">
        <ele>191.44</ele>
        <time>2018-10-11T14:29:08Z</time>
      </trkpt>
      <trkpt lat="49.60604" lon="4.95441">
        <ele>190.96</ele>
        <time>2018-10-11T14:29:23Z</time>
      </trkpt>
      <trkpt lat="49.60622" lon="4.95434">
        <ele>189.52</ele>
        <time>2018-10-11T14:29:40Z</time>
      </trkpt>
      <trkpt lat="49.60627" lon="4.95432">
        <ele>189.04</ele>
        <time>2018-10-11T14:29:44Z</time>
      </trkpt>
      <trkpt lat="49.60651" lon="4.95428">
        <ele>190</ele>
        <time>2018-10-11T14:30:04Z</time>
      </trkpt>
      <trkpt lat="49.60668" lon="4.95423">
        <ele>190.96</ele>
        <time>2018-10-11T14:30:20Z</time>
      </trkpt>
      <trkpt lat="49.60691" lon="4.95417">
        <ele>190.48</ele>
        <time>2018-10-11T14:30:41Z</time>
      </trkpt>
      <trkpt lat="49.60711" lon="4.95414">
        <ele>187.11</ele>
        <time>2018-10-11T14:31:00Z</time>
      </trkpt>
      <trkpt lat="49.60728" lon="4.95409">
        <ele>182.79</ele>
        <time>2018-10-11T14:31:19Z</time>
      </trkpt>
      <trkpt lat="49.60749" lon="4.95407">
        <ele>182.31</ele>
        <time>2018-10-11T14:31:39Z</time>
      </trkpt>
      <trkpt lat="49.60771" lon="4.95405">
        <ele>181.35</ele>
        <time>2018-10-11T14:32:02Z</time>
      </trkpt>
      <trkpt lat="49.60789" lon="4.9541">
        <ele>182.79</ele>
        <time>2018-10-11T14:32:19Z</time>
      </trkpt>
      <trkpt lat="49.60813" lon="4.95419">
        <ele>184.71</ele>
        <time>2018-10-11T14:32:39Z</time>
      </trkpt>
      <trkpt lat="49.60832" lon="4.9543">
        <ele>181.83</ele>
        <time>2018-10-11T14:33:00Z</time>
      </trkpt>
      <trkpt lat="49.60841" lon="4.95436">
        <ele>181.35</ele>
        <time>2018-10-11T14:33:08Z</time>
      </trkpt>
      <trkpt lat="49.60854" lon="4.95457">
        <ele>181.35</ele>
        <time>2018-10-11T14:33:26Z</time>
      </trkpt>
      <trkpt lat="49.60869" lon="4.95459">
        <ele>178.94</ele>
        <time>2018-10-11T14:33:45Z</time>
      </trkpt>
      <trkpt lat="49.60884" lon="4.95466">
        <ele>178.94</ele>
        <time>2018-10-11T14:33:59Z</time>
      </trkpt>
      <trkpt lat="49.60906" lon="4.95477">
        <ele>179.42</ele>
        <time>2018-10-11T14:34:17Z</time>
      </trkpt>
      <trkpt lat="49.60912" lon="4.95481">
        <ele>179.42</ele>
        <time>2018-10-11T14:34:35Z</time>
      </trkpt>
      <trkpt lat="49.6093" lon="4.95495">
        <ele>176.54</ele>
        <time>2018-10-11T14:34:56Z</time>
      </trkpt>
      <trkpt lat="49.60954" lon="4.95508">
        <ele>178.94</ele>
        <time>2018-10-11T14:35:16Z</time>
      </trkpt>
      <trkpt lat="49.60955" lon="4.95509">
        <ele>180.87</ele>
        <time>2018-10-11T14:35:42Z</time>
      </trkpt>
      <trkpt lat="49.60963" lon="4.95511">
        <ele>185.67</ele>
        <time>2018-10-11T14:36:01Z</time>
      </trkpt>
      <trkpt lat="49.60963" lon="4.95512">
        <ele>186.63</ele>
        <time>2018-10-11T14:36:42Z</time>
      </trkpt>
      <trkpt lat="49.60964" lon="4.95513">
        <ele>187.11</ele>
        <time>2018-10-11T14:37:19Z</time>
      </trkpt>
      <trkpt lat="49.60964" lon="4.95514">
        <ele>188.08</ele>
        <time>2018-10-11T14:38:00Z</time>
      </trkpt>
      <trkpt lat="49.60964" lon="4.95515">
        <ele>189.04</ele>
        <time>2018-10-11T14:38:45Z</time>
      </trkpt>
      <trkpt lat="49.60964" lon="4.95515">
        <ele>189.04</ele>
        <time>2018-10-11T14:39:18Z</time>
      </trkpt>
      <trkpt lat="49.60963" lon="4.95515">
        <ele>189.52</ele>
        <time>2018-10-11T14:39:57Z</time>
      </trkpt>
      <trkpt lat="49.60959" lon="4.95514">
        <ele>191.44</ele>
        <time>2018-10-11T14:40:20Z</time>
      </trkpt>
      <trkpt lat="49.60957" lon="4.95515">
        <ele>191.44</ele>
        <time>2018-10-11T14:40:51Z</time>
      </trkpt>
      <trkpt lat="49.60958" lon="4.95513">
        <ele>192.4</ele>
        <time>2018-10-11T14:41:17Z</time>
      </trkpt>
      <trkpt lat="49.60957" lon="4.95513">
        <ele>192.88</ele>
        <time>2018-10-11T14:41:41Z</time>
      </trkpt>
      <trkpt lat="49.60966" lon="4.95522">
        <ele>190.96</ele>
        <time>2018-10-11T14:41:56Z</time>
      </trkpt>
      <trkpt lat="49.60969" lon="4.95524">
        <ele>190</ele>
        <time>2018-10-11T14:42:09Z</time>
      </trkpt>
      <trkpt lat="49.60972" lon="4.95528">
        <ele>188.56</ele>
        <time>2018-10-11T14:42:23Z</time>
      </trkpt>
      <trkpt lat="49.60978" lon="4.95536">
        <ele>187.11</ele>
        <time>2018-10-11T14:42:37Z</time>
      </trkpt>
      <trkpt lat="49.60983" lon="4.95542">
        <ele>185.19</ele>
        <time>2018-10-11T14:42:51Z</time>
      </trkpt>
      <trkpt lat="49.60996" lon="4.95552">
        <ele>183.27</ele>
        <time>2018-10-11T14:43:03Z</time>
      </trkpt>
      <trkpt lat="49.61014" lon="4.95564">
        <ele>182.31</ele>
        <time>2018-10-11T14:43:17Z</time>
      </trkpt>
      <trkpt lat="49.61035" lon="4.95578">
        <ele>183.75</ele>
        <time>2018-10-11T14:43:28Z</time>
      </trkpt>
      <trkpt lat="49.61047" lon="4.95585">
        <ele>184.23</ele>
        <time>2018-10-11T14:43:42Z</time>
      </trkpt>
      <trkpt lat="49.61058" lon="4.95591">
        <ele>184.23</ele>
        <time>2018-10-11T14:43:54Z</time>
      </trkpt>
      <trkpt lat="49.61075" lon="4.95599">
        <ele>184.23</ele>
        <time>2018-10-11T14:44:09Z</time>
      </trkpt>
      <trkpt lat="49.6109" lon="4.95609">
        <ele>186.63</ele>
        <time>2018-10-11T14:44:23Z</time>
      </trkpt>
      <trkpt lat="49.61117" lon="4.95625">
        <ele>188.56</ele>
        <time>2018-10-11T14:44:40Z</time>
      </trkpt>
      <trkpt lat="49.61138" lon="4.95637">
        <ele>187.59</ele>
        <time>2018-10-11T14:44:55Z</time>
      </trkpt>
      <trkpt lat="49.61152" lon="4.95643">
        <ele>187.11</ele>
        <time>2018-10-11T14:45:09Z</time>
      </trkpt>
      <trkpt lat="49.61169" lon="4.95651">
        <ele>187.11</ele>
        <time>2018-10-11T14:45:24Z</time>
      </trkpt>
      <trkpt lat="49.61175" lon="4.95659">
        <ele>188.08</ele>
        <time>2018-10-11T14:45:39Z</time>
      </trkpt>
      <trkpt lat="49.61192" lon="4.9567">
        <ele>188.08</ele>
        <time>2018-10-11T14:45:54Z</time>
      </trkpt>
      <trkpt lat="49.61202" lon="4.95678">
        <ele>189.04</ele>
        <time>2018-10-11T14:46:07Z</time>
      </trkpt>
      <trkpt lat="49.6121" lon="4.95683">
        <ele>190</ele>
        <time>2018-10-11T14:46:19Z</time>
      </trkpt>
      <trkpt lat="49.61233" lon="4.95695">
        <ele>188.08</ele>
        <time>2018-10-11T14:46:33Z</time>
      </trkpt>
      <trkpt lat="49.61246" lon="4.95708">
        <ele>189.04</ele>
        <time>2018-10-11T14:46:48Z</time>
      </trkpt>
      <trkpt lat="49.61262" lon="4.95719">
        <ele>187.59</ele>
        <time>2018-10-11T14:47:01Z</time>
      </trkpt>
      <trkpt lat="49.61274" lon="4.95725">
        <ele>186.63</ele>
        <time>2018-10-11T14:47:08Z</time>
      </trkpt>
      <trkpt lat="49.61284" lon="4.95736">
        <ele>186.63</ele>
        <time>2018-10-11T14:47:21Z</time>
      </trkpt>
      <trkpt lat="49.61299" lon="4.95748">
        <ele>184.23</ele>
        <time>2018-10-11T14:47:35Z</time>
      </trkpt>
      <trkpt lat="49.61311" lon="4.95758">
        <ele>183.27</ele>
        <time>2018-10-11T14:47:49Z</time>
      </trkpt>
      <trkpt lat="49.6132" lon="4.95768">
        <ele>184.71</ele>
        <time>2018-10-11T14:48:03Z</time>
      </trkpt>
      <trkpt lat="49.61337" lon="4.9579">
        <ele>186.15</ele>
        <time>2018-10-11T14:48:16Z</time>
      </trkpt>
      <trkpt lat="49.61354" lon="4.9581">
        <ele>188.56</ele>
        <time>2018-10-11T14:48:31Z</time>
      </trkpt>
      <trkpt lat="49.61366" lon="4.95825">
        <ele>187.11</ele>
        <time>2018-10-11T14:48:46Z</time>
      </trkpt>
      <trkpt lat="49.61378" lon="4.95836">
        <ele>185.19</ele>
        <time>2018-10-11T14:49:00Z</time>
      </trkpt>
      <trkpt lat="49.61392" lon="4.95855">
        <ele>183.27</ele>
        <time>2018-10-11T14:49:16Z</time>
      </trkpt>
      <trkpt lat="49.61404" lon="4.95868">
        <ele>181.35</ele>
        <time>2018-10-11T14:49:30Z</time>
      </trkpt>
      <trkpt lat="49.61417" lon="4.95885">
        <ele>180.87</ele>
        <time>2018-10-11T14:49:45Z</time>
      </trkpt>
      <trkpt lat="49.61429" lon="4.95903">
        <ele>179.9</ele>
        <time>2018-10-11T14:50:00Z</time>
      </trkpt>
      <trkpt lat="49.6143" lon="4.95909">
        <ele>182.79</ele>
        <time>2018-10-11T14:50:15Z</time>
      </trkpt>
      <trkpt lat="49.6144" lon="4.9592">
        <ele>180.38</ele>
        <time>2018-10-11T14:50:26Z</time>
      </trkpt>
      <trkpt lat="49.61453" lon="4.95937">
        <ele>180.38</ele>
        <time>2018-10-11T14:50:42Z</time>
      </trkpt>
      <trkpt lat="49.6146" lon="4.95949">
        <ele>179.42</ele>
        <time>2018-10-11T14:50:54Z</time>
      </trkpt>
      <trkpt lat="49.6148" lon="4.95968">
        <ele>178.94</ele>
        <time>2018-10-11T14:51:10Z</time>
      </trkpt>
      <trkpt lat="49.61492" lon="4.95979">
        <ele>180.87</ele>
        <time>2018-10-11T14:51:27Z</time>
      </trkpt>
      <trkpt lat="49.61508" lon="4.9599">
        <ele>179.9</ele>
        <time>2018-10-11T14:51:41Z</time>
      </trkpt>
      <trkpt lat="49.61525" lon="4.95998">
        <ele>177.98</ele>
        <time>2018-10-11T14:51:56Z</time>
      </trkpt>
      <trkpt lat="49.61541" lon="4.96005">
        <ele>178.46</ele>
        <time>2018-10-11T14:52:12Z</time>
      </trkpt>
      <trkpt lat="49.6156" lon="4.96013">
        <ele>180.87</ele>
        <time>2018-10-11T14:52:29Z</time>
      </trkpt>
      <trkpt lat="49.61568" lon="4.96017">
        <ele>181.35</ele>
        <time>2018-10-11T14:52:37Z</time>
      </trkpt>
      <trkpt lat="49.61572" lon="4.96018">
        <ele>181.35</ele>
        <time>2018-10-11T14:52:40Z</time>
      </trkpt>
      <trkpt lat="49.61587" lon="4.96025">
        <ele>181.35</ele>
        <time>2018-10-11T14:52:54Z</time>
      </trkpt>
      <trkpt lat="49.61599" lon="4.96029">
        <ele>183.75</ele>
        <time>2018-10-11T14:53:08Z</time>
      </trkpt>
      <trkpt lat="49.61618" lon="4.96037">
        <ele>185.67</ele>
        <time>2018-10-11T14:53:26Z</time>
      </trkpt>
      <trkpt lat="49.61638" lon="4.96046">
        <ele>185.67</ele>
        <time>2018-10-11T14:53:43Z</time>
      </trkpt>
      <trkpt lat="49.61656" lon="4.96049">
        <ele>184.23</ele>
        <time>2018-10-11T14:53:59Z</time>
      </trkpt>
      <trkpt lat="49.61676" lon="4.96046">
        <ele>180.38</ele>
        <time>2018-10-11T14:54:18Z</time>
      </trkpt>
      <trkpt lat="49.61702" lon="4.9605">
        <ele>177.98</ele>
        <time>2018-10-11T14:54:37Z</time>
      </trkpt>
      <trkpt lat="49.61722" lon="4.96053">
        <ele>178.46</ele>
        <time>2018-10-11T14:54:56Z</time>
      </trkpt>
      <trkpt lat="49.61735" lon="4.96059">
        <ele>177.98</ele>
        <time>2018-10-11T14:55:09Z</time>
      </trkpt>
      <trkpt lat="49.6175" lon="4.9607">
        <ele>182.31</ele>
        <time>2018-10-11T14:55:25Z</time>
      </trkpt>
      <trkpt lat="49.61769" lon="4.96075">
        <ele>182.79</ele>
        <time>2018-10-11T14:55:42Z</time>
      </trkpt>
      <trkpt lat="49.6179" lon="4.9608">
        <ele>181.83</ele>
        <time>2018-10-11T14:56:01Z</time>
      </trkpt>
      <trkpt lat="49.6181" lon="4.96086">
        <ele>183.27</ele>
        <time>2018-10-11T14:56:20Z</time>
      </trkpt>
      <trkpt lat="49.61828" lon="4.96092">
        <ele>181.83</ele>
        <time>2018-10-11T14:56:36Z</time>
      </trkpt>
      <trkpt lat="49.61846" lon="4.96098">
        <ele>179.9</ele>
        <time>2018-10-11T14:56:52Z</time>
      </trkpt>
      <trkpt lat="49.61851" lon="4.96098">
        <ele>179.42</ele>
        <time>2018-10-11T14:56:56Z</time>
      </trkpt>
      <trkpt lat="49.61864" lon="4.96105">
        <ele>178.46</ele>
        <time>2018-10-11T14:57:08Z</time>
      </trkpt>
      <trkpt lat="49.61882" lon="4.96112">
        <ele>176.54</ele>
        <time>2018-10-11T14:57:24Z</time>
      </trkpt>
      <trkpt lat="49.61894" lon="4.96115">
        <ele>176.06</ele>
        <time>2018-10-11T14:57:37Z</time>
      </trkpt>
      <trkpt lat="49.61915" lon="4.96116">
        <ele>177.02</ele>
        <time>2018-10-11T14:57:54Z</time>
      </trkpt>
      <trkpt lat="49.61927" lon="4.9612">
        <ele>177.98</ele>
        <time>2018-10-11T14:58:07Z</time>
      </trkpt>
      <trkpt lat="49.61943" lon="4.96124">
        <ele>177.5</ele>
        <time>2018-10-11T14:58:20Z</time>
      </trkpt>
      <trkpt lat="49.6196" lon="4.96124">
        <ele>177.02</ele>
        <time>2018-10-11T14:58:35Z</time>
      </trkpt>
      <trkpt lat="49.61978" lon="4.96129">
        <ele>178.46</ele>
        <time>2018-10-11T14:58:54Z</time>
      </trkpt>
      <trkpt lat="49.61997" lon="4.96136">
        <ele>174.62</ele>
        <time>2018-10-11T14:59:11Z</time>
      </trkpt>
      <trkpt lat="49.62014" lon="4.96138">
        <ele>177.02</ele>
        <time>2018-10-11T14:59:24Z</time>
      </trkpt>
      <trkpt lat="49.62034" lon="4.96143">
        <ele>176.06</ele>
        <time>2018-10-11T14:59:41Z</time>
      </trkpt>
      <trkpt lat="49.62051" lon="4.96147">
        <ele>174.14</ele>
        <time>2018-10-11T14:59:55Z</time>
      </trkpt>
      <trkpt lat="49.62064" lon="4.96152">
        <ele>174.62</ele>
        <time>2018-10-11T15:00:08Z</time>
      </trkpt>
      <trkpt lat="49.62081" lon="4.96155">
        <ele>175.1</ele>
        <time>2018-10-11T15:00:24Z</time>
      </trkpt>
      <trkpt lat="49.62085" lon="4.96157">
        <ele>175.58</ele>
        <time>2018-10-11T15:00:27Z</time>
      </trkpt>
      <trkpt lat="49.6209" lon="4.96159">
        <ele>175.58</ele>
        <time>2018-10-11T15:00:32Z</time>
      </trkpt>
      <trkpt lat="49.62108" lon="4.96161">
        <ele>172.69</ele>
        <time>2018-10-11T15:00:46Z</time>
      </trkpt>
      <trkpt lat="49.62127" lon="4.96166">
        <ele>172.21</ele>
        <time>2018-10-11T15:01:02Z</time>
      </trkpt>
      <trkpt lat="49.62144" lon="4.96173">
        <ele>173.66</ele>
        <time>2018-10-11T15:01:17Z</time>
      </trkpt>
      <trkpt lat="49.62161" lon="4.96173">
        <ele>171.73</ele>
        <time>2018-10-11T15:01:32Z</time>
      </trkpt>
      <trkpt lat="49.6218" lon="4.96179">
        <ele>171.73</ele>
        <time>2018-10-11T15:01:51Z</time>
      </trkpt>
      <trkpt lat="49.62197" lon="4.96182">
        <ele>171.73</ele>
        <time>2018-10-11T15:02:06Z</time>
      </trkpt>
      <trkpt lat="49.62213" lon="4.96187">
        <ele>173.66</ele>
        <time>2018-10-11T15:02:22Z</time>
      </trkpt>
      <trkpt lat="49.62225" lon="4.96187">
        <ele>172.69</ele>
        <time>2018-10-11T15:02:34Z</time>
      </trkpt>
      <trkpt lat="49.62242" lon="4.96192">
        <ele>173.66</ele>
        <time>2018-10-11T15:02:51Z</time>
      </trkpt>
      <trkpt lat="49.6226" lon="4.962">
        <ele>173.17</ele>
        <time>2018-10-11T15:03:07Z</time>
      </trkpt>
      <trkpt lat="49.62285" lon="4.96205">
        <ele>171.25</ele>
        <time>2018-10-11T15:03:26Z</time>
      </trkpt>
      <trkpt lat="49.62308" lon="4.96208">
        <ele>171.25</ele>
        <time>2018-10-11T15:03:45Z</time>
      </trkpt>
      <trkpt lat="49.62328" lon="4.96211">
        <ele>172.69</ele>
        <time>2018-10-11T15:04:04Z</time>
      </trkpt>
      <trkpt lat="49.6234" lon="4.96215">
        <ele>173.17</ele>
        <time>2018-10-11T15:04:16Z</time>
      </trkpt>
      <trkpt lat="49.62365" lon="4.96219">
        <ele>168.85</ele>
        <time>2018-10-11T15:04:37Z</time>
      </trkpt>
      <trkpt lat="49.62366" lon="4.96219">
        <ele>168.37</ele>
        <time>2018-10-11T15:04:38Z</time>
      </trkpt>
      <trkpt lat="49.62373" lon="4.96221">
        <ele>166.45</ele>
        <time>2018-10-11T15:04:43Z</time>
      </trkpt>
      <trkpt lat="49.62392" lon="4.96222">
        <ele>166.93</ele>
        <time>2018-10-11T15:05:00Z</time>
      </trkpt>
      <trkpt lat="49.6241" lon="4.96229">
        <ele>165.48</ele>
        <time>2018-10-11T15:05:14Z</time>
      </trkpt>
      <trkpt lat="49.62425" lon="4.96246">
        <ele>170.77</ele>
        <time>2018-10-11T15:05:30Z</time>
      </trkpt>
      <trkpt lat="49.62438" lon="4.96263">
        <ele>178.46</ele>
        <time>2018-10-11T15:05:47Z</time>
      </trkpt>
      <trkpt lat="49.62447" lon="4.96267">
        <ele>185.19</ele>
        <time>2018-10-11T15:05:59Z</time>
      </trkpt>
      <trkpt lat="49.62454" lon="4.96274">
        <ele>183.27</ele>
        <time>2018-10-11T15:06:10Z</time>
      </trkpt>
      <trkpt lat="49.62458" lon="4.96279">
        <ele>180.87</ele>
        <time>2018-10-11T15:06:14Z</time>
      </trkpt>
      <trkpt lat="49.62468" lon="4.96298">
        <ele>169.81</ele>
        <time>2018-10-11T15:06:27Z</time>
      </trkpt>
      <trkpt lat="49.62481" lon="4.96306">
        <ele>163.56</ele>
        <time>2018-10-11T15:06:39Z</time>
      </trkpt>
      <trkpt lat="49.62495" lon="4.9631">
        <ele>159.24</ele>
        <time>2018-10-11T15:06:53Z</time>
      </trkpt>
      <trkpt lat="49.62504" lon="4.96313">
        <ele>159.24</ele>
        <time>2018-10-11T15:06:58Z</time>
      </trkpt>
      <trkpt lat="49.62539" lon="4.9631">
        <ele>168.37</ele>
        <time>2018-10-11T15:07:17Z</time>
      </trkpt>
      <trkpt lat="49.62557" lon="4.96322">
        <ele>169.81</ele>
        <time>2018-10-11T15:07:33Z</time>
      </trkpt>
      <trkpt lat="49.62572" lon="4.96328">
        <ele>168.37</ele>
        <time>2018-10-11T15:07:46Z</time>
      </trkpt>
      <trkpt lat="49.62592" lon="4.96335">
        <ele>166.45</ele>
        <time>2018-10-11T15:08:04Z</time>
      </trkpt>
      <trkpt lat="49.62604" lon="4.96342">
        <ele>167.41</ele>
        <time>2018-10-11T15:08:15Z</time>
      </trkpt>
      <trkpt lat="49.62625" lon="4.96355">
        <ele>168.85</ele>
        <time>2018-10-11T15:08:35Z</time>
      </trkpt>
      <trkpt lat="49.62637" lon="4.96363">
        <ele>168.85</ele>
        <time>2018-10-11T15:08:48Z</time>
      </trkpt>
      <trkpt lat="49.62657" lon="4.96373">
        <ele>171.25</ele>
        <time>2018-10-11T15:09:05Z</time>
      </trkpt>
      <trkpt lat="49.62672" lon="4.96383">
        <ele>171.73</ele>
        <time>2018-10-11T15:09:19Z</time>
      </trkpt>
      <trkpt lat="49.62688" lon="4.96392">
        <ele>170.77</ele>
        <time>2018-10-11T15:09:34Z</time>
      </trkpt>
      <trkpt lat="49.62703" lon="4.96401">
        <ele>169.81</ele>
        <time>2018-10-11T15:09:49Z</time>
      </trkpt>
      <trkpt lat="49.62719" lon="4.96412">
        <ele>170.77</ele>
        <time>2018-10-11T15:10:04Z</time>
      </trkpt>
      <trkpt lat="49.62733" lon="4.96418">
        <ele>170.77</ele>
        <time>2018-10-11T15:10:17Z</time>
      </trkpt>
      <trkpt lat="49.62747" lon="4.96424">
        <ele>172.21</ele>
        <time>2018-10-11T15:10:31Z</time>
      </trkpt>
      <trkpt lat="49.62762" lon="4.96434">
        <ele>176.06</ele>
        <time>2018-10-11T15:10:47Z</time>
      </trkpt>
      <trkpt lat="49.62771" lon="4.96441">
        <ele>174.14</ele>
        <time>2018-10-11T15:11:00Z</time>
      </trkpt>
      <trkpt lat="49.6279" lon="4.9645">
        <ele>173.66</ele>
        <time>2018-10-11T15:11:15Z</time>
      </trkpt>
      <trkpt lat="49.62808" lon="4.96459">
        <ele>170.77</ele>
        <time>2018-10-11T15:11:31Z</time>
      </trkpt>
      <trkpt lat="49.62824" lon="4.96467">
        <ele>169.81</ele>
        <time>2018-10-11T15:11:45Z</time>
      </trkpt>
      <trkpt lat="49.6284" lon="4.96476">
        <ele>171.25</ele>
        <time>2018-10-11T15:12:02Z</time>
      </trkpt>
      <trkpt lat="49.62857" lon="4.96484">
        <ele>169.81</ele>
        <time>2018-10-11T15:12:17Z</time>
      </trkpt>
      <trkpt lat="49.62876" lon="4.96495">
        <ele>169.33</ele>
        <time>2018-10-11T15:12:34Z</time>
      </trkpt>
      <trkpt lat="49.62896" lon="4.96509">
        <ele>169.33</ele>
        <time>2018-10-11T15:12:53Z</time>
      </trkpt>
      <trkpt lat="49.6291" lon="4.9652">
        <ele>168.85</ele>
        <time>2018-10-11T15:13:12Z</time>
      </trkpt>
      <trkpt lat="49.62925" lon="4.96529">
        <ele>171.25</ele>
        <time>2018-10-11T15:13:29Z</time>
      </trkpt>
      <trkpt lat="49.62939" lon="4.96544">
        <ele>170.29</ele>
        <time>2018-10-11T15:13:45Z</time>
      </trkpt>
      <trkpt lat="49.62952" lon="4.96555">
        <ele>168.85</ele>
        <time>2018-10-11T15:13:59Z</time>
      </trkpt>
      <trkpt lat="49.62969" lon="4.96568">
        <ele>169.33</ele>
        <time>2018-10-11T15:14:15Z</time>
      </trkpt>
      <trkpt lat="49.62981" lon="4.9658">
        <ele>170.29</ele>
        <time>2018-10-11T15:14:30Z</time>
      </trkpt>
      <trkpt lat="49.62995" lon="4.96591">
        <ele>170.77</ele>
        <time>2018-10-11T15:14:47Z</time>
      </trkpt>
      <trkpt lat="49.63013" lon="4.96609">
        <ele>169.33</ele>
        <time>2018-10-11T15:15:05Z</time>
      </trkpt>
      <trkpt lat="49.63027" lon="4.96621">
        <ele>168.37</ele>
        <time>2018-10-11T15:15:21Z</time>
      </trkpt>
      <trkpt lat="49.63039" lon="4.96631">
        <ele>169.81</ele>
        <time>2018-10-11T15:15:34Z</time>
      </trkpt>
      <trkpt lat="49.63054" lon="4.96645">
        <ele>170.29</ele>
        <time>2018-10-11T15:15:49Z</time>
      </trkpt>
      <trkpt lat="49.6306" lon="4.96651">
        <ele>171.25</ele>
        <time>2018-10-11T15:15:55Z</time>
      </trkpt>
      <trkpt lat="49.63073" lon="4.9666">
        <ele>170.29</ele>
        <time>2018-10-11T15:16:09Z</time>
      </trkpt>
      <trkpt lat="49.63085" lon="4.9667">
        <ele>170.29</ele>
        <time>2018-10-11T15:16:23Z</time>
      </trkpt>
      <trkpt lat="49.63098" lon="4.96683">
        <ele>170.77</ele>
        <time>2018-10-11T15:16:38Z</time>
      </trkpt>
      <trkpt lat="49.63112" lon="4.96696">
        <ele>170.29</ele>
        <time>2018-10-11T15:16:52Z</time>
      </trkpt>
      <trkpt lat="49.63128" lon="4.96711">
        <ele>169.33</ele>
        <time>2018-10-11T15:17:09Z</time>
      </trkpt>
      <trkpt lat="49.6314" lon="4.9672">
        <ele>166.93</ele>
        <time>2018-10-11T15:17:22Z</time>
      </trkpt>
      <trkpt lat="49.63146" lon="4.96726">
        <ele>165</ele>
        <time>2018-10-11T15:17:28Z</time>
      </trkpt>
      <trkpt lat="49.63162" lon="4.96739">
        <ele>166.93</ele>
        <time>2018-10-11T15:17:46Z</time>
      </trkpt>
      <trkpt lat="49.63175" lon="4.96752">
        <ele>165.96</ele>
        <time>2018-10-11T15:18:00Z</time>
      </trkpt>
      <trkpt lat="49.63188" lon="4.96764">
        <ele>166.45</ele>
        <time>2018-10-11T15:18:14Z</time>
      </trkpt>
      <trkpt lat="49.63198" lon="4.96775">
        <ele>166.93</ele>
        <time>2018-10-11T15:18:27Z</time>
      </trkpt>
      <trkpt lat="49.63209" lon="4.96787">
        <ele>166.93</ele>
        <time>2018-10-11T15:18:40Z</time>
      </trkpt>
      <trkpt lat="49.6322" lon="4.96802">
        <ele>166.45</ele>
        <time>2018-10-11T15:18:54Z</time>
      </trkpt>
      <trkpt lat="49.63235" lon="4.96821">
        <ele>164.52</ele>
        <time>2018-10-11T15:19:10Z</time>
      </trkpt>
      <trkpt lat="49.63243" lon="4.96837">
        <ele>165.96</ele>
        <time>2018-10-11T15:19:23Z</time>
      </trkpt>
      <trkpt lat="49.63254" lon="4.96857">
        <ele>165</ele>
        <time>2018-10-11T15:19:38Z</time>
      </trkpt>
      <trkpt lat="49.63261" lon="4.96878">
        <ele>163.56</ele>
        <time>2018-10-11T15:19:53Z</time>
      </trkpt>
      <trkpt lat="49.6327" lon="4.96899">
        <ele>164.04</ele>
        <time>2018-10-11T15:20:09Z</time>
      </trkpt>
      <trkpt lat="49.63277" lon="4.96923">
        <ele>161.16</ele>
        <time>2018-10-11T15:20:25Z</time>
      </trkpt>
      <trkpt lat="49.63282" lon="4.96939">
        <ele>163.08</ele>
        <time>2018-10-11T15:20:36Z</time>
      </trkpt>
      <trkpt lat="49.63288" lon="4.96955">
        <ele>161.16</ele>
        <time>2018-10-11T15:20:48Z</time>
      </trkpt>
      <trkpt lat="49.63292" lon="4.96976">
        <ele>161.64</ele>
        <time>2018-10-11T15:21:01Z</time>
      </trkpt>
      <trkpt lat="49.63299" lon="4.96998">
        <ele>157.79</ele>
        <time>2018-10-11T15:21:17Z</time>
      </trkpt>
      <trkpt lat="49.63306" lon="4.97026">
        <ele>158.27</ele>
        <time>2018-10-11T15:21:34Z</time>
      </trkpt>
      <trkpt lat="49.63312" lon="4.97047">
        <ele>156.35</ele>
        <time>2018-10-11T15:21:49Z</time>
      </trkpt>
      <trkpt lat="49.63314" lon="4.9705">
        <ele>155.39</ele>
        <time>2018-10-11T15:21:51Z</time>
      </trkpt>
      <trkpt lat="49.6332" lon="4.9707">
        <ele>151.54</ele>
        <time>2018-10-11T15:22:06Z</time>
      </trkpt>
      <trkpt lat="49.63326" lon="4.97091">
        <ele>149.14</ele>
        <time>2018-10-11T15:22:20Z</time>
      </trkpt>
      <trkpt lat="49.63333" lon="4.97117">
        <ele>145.78</ele>
        <time>2018-10-11T15:22:36Z</time>
      </trkpt>
      <trkpt lat="49.63333" lon="4.97133">
        <ele>149.14</ele>
        <time>2018-10-11T15:22:45Z</time>
      </trkpt>
      <trkpt lat="49.63337" lon="4.97155">
        <ele>151.54</ele>
        <time>2018-10-11T15:22:58Z</time>
      </trkpt>
      <trkpt lat="49.63344" lon="4.97179">
        <ele>151.54</ele>
        <time>2018-10-11T15:23:13Z</time>
      </trkpt>
      <trkpt lat="49.63355" lon="4.972">
        <ele>144.82</ele>
        <time>2018-10-11T15:23:29Z</time>
      </trkpt>
      <trkpt lat="49.6336" lon="4.97209">
        <ele>141.45</ele>
        <time>2018-10-11T15:23:37Z</time>
      </trkpt>
      <trkpt lat="49.63367" lon="4.97233">
        <ele>143.37</ele>
        <time>2018-10-11T15:23:52Z</time>
      </trkpt>
      <trkpt lat="49.63376" lon="4.97258">
        <ele>151.06</ele>
        <time>2018-10-11T15:24:08Z</time>
      </trkpt>
      <trkpt lat="49.63382" lon="4.97266">
        <ele>151.06</ele>
        <time>2018-10-11T15:24:17Z</time>
      </trkpt>
      <trkpt lat="49.63388" lon="4.97274">
        <ele>151.54</ele>
        <time>2018-10-11T15:24:24Z</time>
      </trkpt>
      <trkpt lat="49.63398" lon="4.97293">
        <ele>149.62</ele>
        <time>2018-10-11T15:24:39Z</time>
      </trkpt>
      <trkpt lat="49.63409" lon="4.97309">
        <ele>146.74</ele>
        <time>2018-10-11T15:24:54Z</time>
      </trkpt>
      <trkpt lat="49.6341" lon="4.97311">
        <ele>146.26</ele>
        <time>2018-10-11T15:24:55Z</time>
      </trkpt>
      <trkpt lat="49.6342" lon="4.97333">
        <ele>143.85</ele>
        <time>2018-10-11T15:25:12Z</time>
      </trkpt>
      <trkpt lat="49.6343" lon="4.97351">
        <ele>146.26</ele>
        <time>2018-10-11T15:25:27Z</time>
      </trkpt>
      <trkpt lat="49.63432" lon="4.97356">
        <ele>147.7</ele>
        <time>2018-10-11T15:25:30Z</time>
      </trkpt>
      <trkpt lat="49.63441" lon="4.97372">
        <ele>147.22</ele>
        <time>2018-10-11T15:25:44Z</time>
      </trkpt>
      <trkpt lat="49.63443" lon="4.97374">
        <ele>146.26</ele>
        <time>2018-10-11T15:25:46Z</time>
      </trkpt>
      <trkpt lat="49.63452" lon="4.97393">
        <ele>148.66</ele>
        <time>2018-10-11T15:26:00Z</time>
      </trkpt>
      <trkpt lat="49.6346" lon="4.97414">
        <ele>152.51</ele>
        <time>2018-10-11T15:26:14Z</time>
      </trkpt>
      <trkpt lat="49.63467" lon="4.97435">
        <ele>155.87</ele>
        <time>2018-10-11T15:26:27Z</time>
      </trkpt>
      <trkpt lat="49.63475" lon="4.97455">
        <ele>160.68</ele>
        <time>2018-10-11T15:26:41Z</time>
      </trkpt>
      <trkpt lat="49.63485" lon="4.97474">
        <ele>162.12</ele>
        <time>2018-10-11T15:26:55Z</time>
      </trkpt>
      <trkpt lat="49.63494" lon="4.97488">
        <ele>161.64</ele>
        <time>2018-10-11T15:27:09Z</time>
      </trkpt>
      <trkpt lat="49.63508" lon="4.97512">
        <ele>163.08</ele>
        <time>2018-10-11T15:27:28Z</time>
      </trkpt>
      <trkpt lat="49.63512" lon="4.97519">
        <ele>163.08</ele>
        <time>2018-10-11T15:27:35Z</time>
      </trkpt>
      <trkpt lat="49.6352" lon="4.97528">
        <ele>162.12</ele>
        <time>2018-10-11T15:27:48Z</time>
      </trkpt>
      <trkpt lat="49.63533" lon="4.97551">
        <ele>161.64</ele>
        <time>2018-10-11T15:28:06Z</time>
      </trkpt>
      <trkpt lat="49.63545" lon="4.9757">
        <ele>162.12</ele>
        <time>2018-10-11T15:28:22Z</time>
      </trkpt>
      <trkpt lat="49.63554" lon="4.97581">
        <ele>161.16</ele>
        <time>2018-10-11T15:28:35Z</time>
      </trkpt>
      <trkpt lat="49.63559" lon="4.97588">
        <ele>159.24</ele>
        <time>2018-10-11T15:28:42Z</time>
      </trkpt>
      <trkpt lat="49.63573" lon="4.9761">
        <ele>160.68</ele>
        <time>2018-10-11T15:29:00Z</time>
      </trkpt>
      <trkpt lat="49.63586" lon="4.97629">
        <ele>161.16</ele>
        <time>2018-10-11T15:29:18Z</time>
      </trkpt>
      <trkpt lat="49.63597" lon="4.97644">
        <ele>162.12</ele>
        <time>2018-10-11T15:29:32Z</time>
      </trkpt>
      <trkpt lat="49.63602" lon="4.97656">
        <ele>163.08</ele>
        <time>2018-10-11T15:29:43Z</time>
      </trkpt>
      <trkpt lat="49.63601" lon="4.97661">
        <ele>163.56</ele>
        <time>2018-10-11T15:29:47Z</time>
      </trkpt>
      <trkpt lat="49.63598" lon="4.97665">
        <ele>163.56</ele>
        <time>2018-10-11T15:29:51Z</time>
      </trkpt>
      <trkpt lat="49.63582" lon="4.97682">
        <ele>165</ele>
        <time>2018-10-11T15:30:10Z</time>
      </trkpt>
      <trkpt lat="49.63569" lon="4.97698">
        <ele>168.37</ele>
        <time>2018-10-11T15:30:26Z</time>
      </trkpt>
      <trkpt lat="49.63565" lon="4.97706">
        <ele>170.29</ele>
        <time>2018-10-11T15:30:35Z</time>
      </trkpt>
      <trkpt lat="49.63552" lon="4.97728">
        <ele>169.33</ele>
        <time>2018-10-11T15:30:52Z</time>
      </trkpt>
      <trkpt lat="49.63542" lon="4.97748">
        <ele>171.73</ele>
        <time>2018-10-11T15:31:09Z</time>
      </trkpt>
      <trkpt lat="49.63531" lon="4.97771">
        <ele>174.62</ele>
        <time>2018-10-11T15:31:26Z</time>
      </trkpt>
      <trkpt lat="49.63524" lon="4.97784">
        <ele>176.06</ele>
        <time>2018-10-11T15:31:37Z</time>
      </trkpt>
      <trkpt lat="49.6352" lon="4.97787">
        <ele>177.02</ele>
        <time>2018-10-11T15:31:41Z</time>
      </trkpt>
      <trkpt lat="49.63518" lon="4.97791">
        <ele>177.02</ele>
        <time>2018-10-11T15:31:44Z</time>
      </trkpt>
      <trkpt lat="49.63515" lon="4.97793">
        <ele>177.5</ele>
        <time>2018-10-11T15:31:48Z</time>
      </trkpt>
      <trkpt lat="49.63501" lon="4.9781">
        <ele>176.06</ele>
        <time>2018-10-11T15:32:06Z</time>
      </trkpt>
      <trkpt lat="49.63489" lon="4.97826">
        <ele>177.98</ele>
        <time>2018-10-11T15:32:22Z</time>
      </trkpt>
      <trkpt lat="49.63487" lon="4.97829">
        <ele>177.98</ele>
        <time>2018-10-11T15:32:24Z</time>
      </trkpt>
      <trkpt lat="49.63481" lon="4.97849">
        <ele>172.69</ele>
        <time>2018-10-11T15:32:38Z</time>
      </trkpt>
      <trkpt lat="49.63479" lon="4.97852">
        <ele>173.66</ele>
        <time>2018-10-11T15:32:41Z</time>
      </trkpt>
      <trkpt lat="49.63473" lon="4.97857">
        <ele>176.54</ele>
        <time>2018-10-11T15:32:47Z</time>
      </trkpt>
      <trkpt lat="49.63457" lon="4.97877">
        <ele>182.79</ele>
        <time>2018-10-11T15:33:05Z</time>
      </trkpt>
      <trkpt lat="49.63445" lon="4.97895">
        <ele>180.38</ele>
        <time>2018-10-11T15:33:21Z</time>
      </trkpt>
      <trkpt lat="49.63441" lon="4.97897">
        <ele>180.38</ele>
        <time>2018-10-11T15:33:25Z</time>
      </trkpt>
      <trkpt lat="49.63426" lon="4.97905">
        <ele>182.31</ele>
        <time>2018-10-11T15:33:42Z</time>
      </trkpt>
      <trkpt lat="49.63411" lon="4.97915">
        <ele>182.79</ele>
        <time>2018-10-11T15:33:58Z</time>
      </trkpt>
      <trkpt lat="49.6341" lon="4.97917">
        <ele>182.31</ele>
        <time>2018-10-11T15:34:00Z</time>
      </trkpt>
      <trkpt lat="49.63397" lon="4.97924">
        <ele>179.42</ele>
        <time>2018-10-11T15:34:14Z</time>
      </trkpt>
      <trkpt lat="49.63388" lon="4.97936">
        <ele>180.87</ele>
        <time>2018-10-11T15:34:27Z</time>
      </trkpt>
      <trkpt lat="49.63387" lon="4.97942">
        <ele>179.9</ele>
        <time>2018-10-11T15:34:32Z</time>
      </trkpt>
      <trkpt lat="49.63395" lon="4.97967">
        <ele>177.5</ele>
        <time>2018-10-11T15:34:51Z</time>
      </trkpt>
      <trkpt lat="49.63399" lon="4.97979">
        <ele>177.98</ele>
        <time>2018-10-11T15:35:00Z</time>
      </trkpt>
      <trkpt lat="49.63401" lon="4.97986">
        <ele>178.46</ele>
        <time>2018-10-11T15:35:05Z</time>
      </trkpt>
      <trkpt lat="49.63406" lon="4.97994">
        <ele>180.38</ele>
        <time>2018-10-11T15:35:13Z</time>
      </trkpt>
      <trkpt lat="49.63418" lon="4.98013">
        <ele>183.75</ele>
        <time>2018-10-11T15:35:30Z</time>
      </trkpt>
      <trkpt lat="49.63428" lon="4.98035">
        <ele>184.71</ele>
        <time>2018-10-11T15:35:44Z</time>
      </trkpt>
      <trkpt lat="49.63436" lon="4.98045">
        <ele>185.67</ele>
        <time>2018-10-11T15:35:54Z</time>
      </trkpt>
      <trkpt lat="49.63442" lon="4.9804">
        <ele>185.19</ele>
        <time>2018-10-11T15:35:57Z</time>
      </trkpt>
      <trkpt lat="49.63448" lon="4.98043">
        <ele>181.83</ele>
        <time>2018-10-11T15:36:07Z</time>
      </trkpt>
    </trkseg>
  </trk>
</gpx>